<?xml version="1.0" encoding="UTF-8" standalone="no" ?>
<gpx xmlns="http://www.topografix.com/GPX/1/1" xmlns:xsi="http://www.w3.org/2001/XMLSchema-instance" xsi:schemaLocation="http://www.topografix.com/GPX/1/1 http://www.topografix.com/GPX/1/1/gpx.xsd" version="1.1" creator="VisuGPX - https://www.visugpx.com">
  <metadata>
    <name>les bergeries troglodytes de Saumane</name>
    <desc><![CDATA[Balade autour de Saumane sur les traces des bergeries troglodytes]]></desc>
  </metadata>
  <trk>
    <name><![CDATA[07-AVR-14 15:25:36]]></name>
    <trkseg>
      <trkpt lat="43.93735" lon="5.10546">
        <ele>203.94</ele>
        <time>2014-04-07T07:24:28Z</time>
      </trkpt>
      <trkpt lat="43.93734" lon="5.10546">
        <ele>206.82</ele>
        <time>2014-04-07T07:24:38Z</time>
      </trkpt>
      <trkpt lat="43.93735" lon="5.10547">
        <ele>210.19</ele>
        <time>2014-04-07T07:24:46Z</time>
      </trkpt>
      <trkpt lat="43.93735" lon="5.10547">
        <ele>210.67</ele>
        <time>2014-04-07T07:24:47Z</time>
      </trkpt>
      <trkpt lat="43.93729" lon="5.10551">
        <ele>213.55</ele>
        <time>2014-04-07T07:24:59Z</time>
      </trkpt>
      <trkpt lat="43.93722" lon="5.1055">
        <ele>213.55</ele>
        <time>2014-04-07T07:25:14Z</time>
      </trkpt>
      <trkpt lat="43.93724" lon="5.10546">
        <ele>213.07</ele>
        <time>2014-04-07T07:25:26Z</time>
      </trkpt>
      <trkpt lat="43.93724" lon="5.10547">
        <ele>213.07</ele>
        <time>2014-04-07T07:25:42Z</time>
      </trkpt>
      <trkpt lat="43.93723" lon="5.10549">
        <ele>213.55</ele>
        <time>2014-04-07T07:26:00Z</time>
      </trkpt>
      <trkpt lat="43.93721" lon="5.10547">
        <ele>213.07</ele>
        <time>2014-04-07T07:26:18Z</time>
      </trkpt>
      <trkpt lat="43.93724" lon="5.10552">
        <ele>214.03</ele>
        <time>2014-04-07T07:26:38Z</time>
      </trkpt>
      <trkpt lat="43.93727" lon="5.1055">
        <ele>213.55</ele>
        <time>2014-04-07T07:26:57Z</time>
      </trkpt>
      <trkpt lat="43.93727" lon="5.10551">
        <ele>213.07</ele>
        <time>2014-04-07T07:27:13Z</time>
      </trkpt>
      <trkpt lat="43.93727" lon="5.10556">
        <ele>214.03</ele>
        <time>2014-04-07T07:27:30Z</time>
      </trkpt>
      <trkpt lat="43.93726" lon="5.10559">
        <ele>213.55</ele>
        <time>2014-04-07T07:27:50Z</time>
      </trkpt>
      <trkpt lat="43.93727" lon="5.10553">
        <ele>213.07</ele>
        <time>2014-04-07T07:28:04Z</time>
      </trkpt>
      <trkpt lat="43.93723" lon="5.1055">
        <ele>213.07</ele>
        <time>2014-04-07T07:28:16Z</time>
      </trkpt>
      <trkpt lat="43.93724" lon="5.1055">
        <ele>213.55</ele>
        <time>2014-04-07T07:28:31Z</time>
      </trkpt>
      <trkpt lat="43.93723" lon="5.10549">
        <ele>213.55</ele>
        <time>2014-04-07T07:28:43Z</time>
      </trkpt>
      <trkpt lat="43.93723" lon="5.10551">
        <ele>213.55</ele>
        <time>2014-04-07T07:29:00Z</time>
      </trkpt>
      <trkpt lat="43.93726" lon="5.10552">
        <ele>214.03</ele>
        <time>2014-04-07T07:29:27Z</time>
      </trkpt>
      <trkpt lat="43.93724" lon="5.10556">
        <ele>213.55</ele>
        <time>2014-04-07T07:29:46Z</time>
      </trkpt>
      <trkpt lat="43.93724" lon="5.10558">
        <ele>213.55</ele>
        <time>2014-04-07T07:30:00Z</time>
      </trkpt>
      <trkpt lat="43.93721" lon="5.10558">
        <ele>214.03</ele>
        <time>2014-04-07T07:30:08Z</time>
      </trkpt>
      <trkpt lat="43.93702" lon="5.10562">
        <ele>214.99</ele>
        <time>2014-04-07T07:30:25Z</time>
      </trkpt>
      <trkpt lat="43.93698" lon="5.10564">
        <ele>215.47</ele>
        <time>2014-04-07T07:30:38Z</time>
      </trkpt>
      <trkpt lat="43.93686" lon="5.10564">
        <ele>215.95</ele>
        <time>2014-04-07T07:30:54Z</time>
      </trkpt>
      <trkpt lat="43.93679" lon="5.10566">
        <ele>216.43</ele>
        <time>2014-04-07T07:31:02Z</time>
      </trkpt>
      <trkpt lat="43.93671" lon="5.10568">
        <ele>217.4</ele>
        <time>2014-04-07T07:31:10Z</time>
      </trkpt>
      <trkpt lat="43.93657" lon="5.10569">
        <ele>218.36</ele>
        <time>2014-04-07T07:31:27Z</time>
      </trkpt>
      <trkpt lat="43.93645" lon="5.10569">
        <ele>218.36</ele>
        <time>2014-04-07T07:31:39Z</time>
      </trkpt>
      <trkpt lat="43.93626" lon="5.10573">
        <ele>218.84</ele>
        <time>2014-04-07T07:31:56Z</time>
      </trkpt>
      <trkpt lat="43.93609" lon="5.10578">
        <ele>219.8</ele>
        <time>2014-04-07T07:32:11Z</time>
      </trkpt>
      <trkpt lat="43.93604" lon="5.10578">
        <ele>219.32</ele>
        <time>2014-04-07T07:32:19Z</time>
      </trkpt>
      <trkpt lat="43.93598" lon="5.10579">
        <ele>219.32</ele>
        <time>2014-04-07T07:32:32Z</time>
      </trkpt>
      <trkpt lat="43.93593" lon="5.10583">
        <ele>218.84</ele>
        <time>2014-04-07T07:32:40Z</time>
      </trkpt>
      <trkpt lat="43.93586" lon="5.1059">
        <ele>217.88</ele>
        <time>2014-04-07T07:32:50Z</time>
      </trkpt>
      <trkpt lat="43.93584" lon="5.10597">
        <ele>217.4</ele>
        <time>2014-04-07T07:32:56Z</time>
      </trkpt>
      <trkpt lat="43.93589" lon="5.10609">
        <ele>216.91</ele>
        <time>2014-04-07T07:33:04Z</time>
      </trkpt>
      <trkpt lat="43.93601" lon="5.10617">
        <ele>215.47</ele>
        <time>2014-04-07T07:33:15Z</time>
      </trkpt>
      <trkpt lat="43.93606" lon="5.10629">
        <ele>214.51</ele>
        <time>2014-04-07T07:33:31Z</time>
      </trkpt>
      <trkpt lat="43.93607" lon="5.10641">
        <ele>213.07</ele>
        <time>2014-04-07T07:33:42Z</time>
      </trkpt>
      <trkpt lat="43.93607" lon="5.10642">
        <ele>213.07</ele>
        <time>2014-04-07T07:33:43Z</time>
      </trkpt>
      <trkpt lat="43.93626" lon="5.10653">
        <ele>214.03</ele>
        <time>2014-04-07T07:34:04Z</time>
      </trkpt>
      <trkpt lat="43.93642" lon="5.10661">
        <ele>214.99</ele>
        <time>2014-04-07T07:34:20Z</time>
      </trkpt>
      <trkpt lat="43.93652" lon="5.1068">
        <ele>213.55</ele>
        <time>2014-04-07T07:34:35Z</time>
      </trkpt>
      <trkpt lat="43.93668" lon="5.10687">
        <ele>211.63</ele>
        <time>2014-04-07T07:34:53Z</time>
      </trkpt>
      <trkpt lat="43.93677" lon="5.10703">
        <ele>210.19</ele>
        <time>2014-04-07T07:35:13Z</time>
      </trkpt>
      <trkpt lat="43.93689" lon="5.10715">
        <ele>208.26</ele>
        <time>2014-04-07T07:35:30Z</time>
      </trkpt>
      <trkpt lat="43.93695" lon="5.1072">
        <ele>207.78</ele>
        <time>2014-04-07T07:35:47Z</time>
      </trkpt>
      <trkpt lat="43.93699" lon="5.10729">
        <ele>207.3</ele>
        <time>2014-04-07T07:36:05Z</time>
      </trkpt>
      <trkpt lat="43.9371" lon="5.10754">
        <ele>205.86</ele>
        <time>2014-04-07T07:36:25Z</time>
      </trkpt>
      <trkpt lat="43.93713" lon="5.1077">
        <ele>203.94</ele>
        <time>2014-04-07T07:36:39Z</time>
      </trkpt>
      <trkpt lat="43.93724" lon="5.10786">
        <ele>201.53</ele>
        <time>2014-04-07T07:36:56Z</time>
      </trkpt>
      <trkpt lat="43.93723" lon="5.10792">
        <ele>201.05</ele>
        <time>2014-04-07T07:37:11Z</time>
      </trkpt>
      <trkpt lat="43.93724" lon="5.10797">
        <ele>200.57</ele>
        <time>2014-04-07T07:37:27Z</time>
      </trkpt>
      <trkpt lat="43.93734" lon="5.10814">
        <ele>198.17</ele>
        <time>2014-04-07T07:37:41Z</time>
      </trkpt>
      <trkpt lat="43.93743" lon="5.1083">
        <ele>197.69</ele>
        <time>2014-04-07T07:37:54Z</time>
      </trkpt>
      <trkpt lat="43.93752" lon="5.10843">
        <ele>197.21</ele>
        <time>2014-04-07T07:38:09Z</time>
      </trkpt>
      <trkpt lat="43.93753" lon="5.10845">
        <ele>197.21</ele>
        <time>2014-04-07T07:38:21Z</time>
      </trkpt>
      <trkpt lat="43.93763" lon="5.10855">
        <ele>197.69</ele>
        <time>2014-04-07T07:38:37Z</time>
      </trkpt>
      <trkpt lat="43.93764" lon="5.10857">
        <ele>197.69</ele>
        <time>2014-04-07T07:38:51Z</time>
      </trkpt>
      <trkpt lat="43.93766" lon="5.1086">
        <ele>197.21</ele>
        <time>2014-04-07T07:38:54Z</time>
      </trkpt>
      <trkpt lat="43.93775" lon="5.10871">
        <ele>198.17</ele>
        <time>2014-04-07T07:39:05Z</time>
      </trkpt>
      <trkpt lat="43.93785" lon="5.10885">
        <ele>199.13</ele>
        <time>2014-04-07T07:39:20Z</time>
      </trkpt>
      <trkpt lat="43.93786" lon="5.10888">
        <ele>198.65</ele>
        <time>2014-04-07T07:39:23Z</time>
      </trkpt>
      <trkpt lat="43.93792" lon="5.10895">
        <ele>199.13</ele>
        <time>2014-04-07T07:39:30Z</time>
      </trkpt>
      <trkpt lat="43.93796" lon="5.10902">
        <ele>199.13</ele>
        <time>2014-04-07T07:39:35Z</time>
      </trkpt>
      <trkpt lat="43.93804" lon="5.10912">
        <ele>198.65</ele>
        <time>2014-04-07T07:39:44Z</time>
      </trkpt>
      <trkpt lat="43.93817" lon="5.10931">
        <ele>197.69</ele>
        <time>2014-04-07T07:40:00Z</time>
      </trkpt>
      <trkpt lat="43.93829" lon="5.10947">
        <ele>196.25</ele>
        <time>2014-04-07T07:40:15Z</time>
      </trkpt>
      <trkpt lat="43.93834" lon="5.10963">
        <ele>194.32</ele>
        <time>2014-04-07T07:40:29Z</time>
      </trkpt>
      <trkpt lat="43.93838" lon="5.1098">
        <ele>193.84</ele>
        <time>2014-04-07T07:40:43Z</time>
      </trkpt>
      <trkpt lat="43.93842" lon="5.10993">
        <ele>193.84</ele>
        <time>2014-04-07T07:40:56Z</time>
      </trkpt>
      <trkpt lat="43.93848" lon="5.11">
        <ele>193.84</ele>
        <time>2014-04-07T07:41:04Z</time>
      </trkpt>
      <trkpt lat="43.93859" lon="5.11016">
        <ele>193.84</ele>
        <time>2014-04-07T07:41:18Z</time>
      </trkpt>
      <trkpt lat="43.93865" lon="5.11026">
        <ele>194.32</ele>
        <time>2014-04-07T07:41:30Z</time>
      </trkpt>
      <trkpt lat="43.93876" lon="5.1104">
        <ele>194.8</ele>
        <time>2014-04-07T07:41:43Z</time>
      </trkpt>
      <trkpt lat="43.93887" lon="5.11054">
        <ele>194.8</ele>
        <time>2014-04-07T07:41:57Z</time>
      </trkpt>
      <trkpt lat="43.93896" lon="5.1107">
        <ele>195.77</ele>
        <time>2014-04-07T07:42:12Z</time>
      </trkpt>
      <trkpt lat="43.93902" lon="5.11074">
        <ele>195.77</ele>
        <time>2014-04-07T07:42:18Z</time>
      </trkpt>
      <trkpt lat="43.93917" lon="5.11078">
        <ele>196.25</ele>
        <time>2014-04-07T07:42:32Z</time>
      </trkpt>
      <trkpt lat="43.93937" lon="5.1108">
        <ele>196.73</ele>
        <time>2014-04-07T07:42:45Z</time>
      </trkpt>
      <trkpt lat="43.93953" lon="5.11088">
        <ele>197.21</ele>
        <time>2014-04-07T07:42:58Z</time>
      </trkpt>
      <trkpt lat="43.93967" lon="5.11103">
        <ele>198.17</ele>
        <time>2014-04-07T07:43:14Z</time>
      </trkpt>
      <trkpt lat="43.93978" lon="5.11112">
        <ele>199.61</ele>
        <time>2014-04-07T07:43:24Z</time>
      </trkpt>
      <trkpt lat="43.93991" lon="5.11119">
        <ele>201.53</ele>
        <time>2014-04-07T07:43:40Z</time>
      </trkpt>
      <trkpt lat="43.94004" lon="5.11123">
        <ele>202.98</ele>
        <time>2014-04-07T07:43:53Z</time>
      </trkpt>
      <trkpt lat="43.94014" lon="5.11129">
        <ele>204.42</ele>
        <time>2014-04-07T07:44:06Z</time>
      </trkpt>
      <trkpt lat="43.9403" lon="5.11135">
        <ele>206.82</ele>
        <time>2014-04-07T07:44:23Z</time>
      </trkpt>
      <trkpt lat="43.94043" lon="5.1114">
        <ele>207.3</ele>
        <time>2014-04-07T07:44:37Z</time>
      </trkpt>
      <trkpt lat="43.94048" lon="5.11143">
        <ele>207.78</ele>
        <time>2014-04-07T07:44:43Z</time>
      </trkpt>
      <trkpt lat="43.9406" lon="5.11149">
        <ele>208.74</ele>
        <time>2014-04-07T07:44:57Z</time>
      </trkpt>
      <trkpt lat="43.94072" lon="5.11157">
        <ele>209.22</ele>
        <time>2014-04-07T07:45:10Z</time>
      </trkpt>
      <trkpt lat="43.94081" lon="5.11161">
        <ele>210.67</ele>
        <time>2014-04-07T07:45:22Z</time>
      </trkpt>
      <trkpt lat="43.94083" lon="5.11165">
        <ele>210.19</ele>
        <time>2014-04-07T07:45:39Z</time>
      </trkpt>
      <trkpt lat="43.94088" lon="5.11163">
        <ele>210.67</ele>
        <time>2014-04-07T07:45:59Z</time>
      </trkpt>
      <trkpt lat="43.94096" lon="5.11161">
        <ele>212.11</ele>
        <time>2014-04-07T07:46:15Z</time>
      </trkpt>
      <trkpt lat="43.9409" lon="5.11158">
        <ele>213.55</ele>
        <time>2014-04-07T07:46:28Z</time>
      </trkpt>
      <trkpt lat="43.94085" lon="5.1115">
        <ele>214.99</ele>
        <time>2014-04-07T07:46:41Z</time>
      </trkpt>
      <trkpt lat="43.94084" lon="5.11149">
        <ele>214.99</ele>
        <time>2014-04-07T07:46:43Z</time>
      </trkpt>
      <trkpt lat="43.94076" lon="5.11142">
        <ele>215.95</ele>
        <time>2014-04-07T07:46:55Z</time>
      </trkpt>
      <trkpt lat="43.94068" lon="5.11135">
        <ele>217.88</ele>
        <time>2014-04-07T07:47:10Z</time>
      </trkpt>
      <trkpt lat="43.94058" lon="5.11126">
        <ele>218.84</ele>
        <time>2014-04-07T07:47:23Z</time>
      </trkpt>
      <trkpt lat="43.9405" lon="5.11122">
        <ele>219.32</ele>
        <time>2014-04-07T07:47:38Z</time>
      </trkpt>
      <trkpt lat="43.94042" lon="5.11114">
        <ele>220.28</ele>
        <time>2014-04-07T07:47:50Z</time>
      </trkpt>
      <trkpt lat="43.94032" lon="5.11107">
        <ele>220.28</ele>
        <time>2014-04-07T07:48:04Z</time>
      </trkpt>
      <trkpt lat="43.94024" lon="5.11096">
        <ele>220.28</ele>
        <time>2014-04-07T07:48:19Z</time>
      </trkpt>
      <trkpt lat="43.94023" lon="5.11096">
        <ele>220.28</ele>
        <time>2014-04-07T07:48:20Z</time>
      </trkpt>
      <trkpt lat="43.94017" lon="5.1109">
        <ele>219.8</ele>
        <time>2014-04-07T07:48:27Z</time>
      </trkpt>
      <trkpt lat="43.94011" lon="5.11082">
        <ele>219.8</ele>
        <time>2014-04-07T07:48:41Z</time>
      </trkpt>
      <trkpt lat="43.94005" lon="5.11076">
        <ele>220.28</ele>
        <time>2014-04-07T07:48:54Z</time>
      </trkpt>
      <trkpt lat="43.93997" lon="5.11069">
        <ele>220.76</ele>
        <time>2014-04-07T07:49:07Z</time>
      </trkpt>
      <trkpt lat="43.93988" lon="5.11063">
        <ele>220.28</ele>
        <time>2014-04-07T07:49:19Z</time>
      </trkpt>
      <trkpt lat="43.93976" lon="5.11058">
        <ele>220.28</ele>
        <time>2014-04-07T07:49:31Z</time>
      </trkpt>
      <trkpt lat="43.9397" lon="5.11049">
        <ele>220.28</ele>
        <time>2014-04-07T07:49:43Z</time>
      </trkpt>
      <trkpt lat="43.93964" lon="5.11034">
        <ele>220.28</ele>
        <time>2014-04-07T07:49:58Z</time>
      </trkpt>
      <trkpt lat="43.93956" lon="5.11024">
        <ele>220.76</ele>
        <time>2014-04-07T07:50:12Z</time>
      </trkpt>
      <trkpt lat="43.9395" lon="5.11015">
        <ele>221.24</ele>
        <time>2014-04-07T07:50:26Z</time>
      </trkpt>
      <trkpt lat="43.93945" lon="5.11003">
        <ele>221.72</ele>
        <time>2014-04-07T07:50:39Z</time>
      </trkpt>
      <trkpt lat="43.93938" lon="5.10989">
        <ele>221.24</ele>
        <time>2014-04-07T07:50:54Z</time>
      </trkpt>
      <trkpt lat="43.93934" lon="5.10975">
        <ele>221.72</ele>
        <time>2014-04-07T07:51:06Z</time>
      </trkpt>
      <trkpt lat="43.93927" lon="5.10957">
        <ele>221.24</ele>
        <time>2014-04-07T07:51:21Z</time>
      </trkpt>
      <trkpt lat="43.93922" lon="5.10947">
        <ele>221.72</ele>
        <time>2014-04-07T07:51:33Z</time>
      </trkpt>
      <trkpt lat="43.9392" lon="5.10945">
        <ele>221.72</ele>
        <time>2014-04-07T07:51:36Z</time>
      </trkpt>
      <trkpt lat="43.93918" lon="5.10941">
        <ele>221.72</ele>
        <time>2014-04-07T07:51:39Z</time>
      </trkpt>
      <trkpt lat="43.93911" lon="5.10925">
        <ele>223.16</ele>
        <time>2014-04-07T07:51:53Z</time>
      </trkpt>
      <trkpt lat="43.93905" lon="5.10914">
        <ele>223.64</ele>
        <time>2014-04-07T07:52:04Z</time>
      </trkpt>
      <trkpt lat="43.93895" lon="5.10902">
        <ele>224.61</ele>
        <time>2014-04-07T07:52:20Z</time>
      </trkpt>
      <trkpt lat="43.93886" lon="5.10888">
        <ele>225.09</ele>
        <time>2014-04-07T07:52:35Z</time>
      </trkpt>
      <trkpt lat="43.93878" lon="5.10883">
        <ele>225.57</ele>
        <time>2014-04-07T07:52:46Z</time>
      </trkpt>
      <trkpt lat="43.93869" lon="5.10875">
        <ele>226.53</ele>
        <time>2014-04-07T07:52:59Z</time>
      </trkpt>
      <trkpt lat="43.93866" lon="5.10872">
        <ele>227.49</ele>
        <time>2014-04-07T07:53:11Z</time>
      </trkpt>
      <trkpt lat="43.93868" lon="5.10874">
        <ele>228.93</ele>
        <time>2014-04-07T07:53:25Z</time>
      </trkpt>
      <trkpt lat="43.93874" lon="5.10874">
        <ele>228.45</ele>
        <time>2014-04-07T07:53:43Z</time>
      </trkpt>
      <trkpt lat="43.93867" lon="5.1087">
        <ele>227.97</ele>
        <time>2014-04-07T07:53:58Z</time>
      </trkpt>
      <trkpt lat="43.93864" lon="5.10869">
        <ele>227.01</ele>
        <time>2014-04-07T07:54:03Z</time>
      </trkpt>
      <trkpt lat="43.9386" lon="5.10868">
        <ele>227.01</ele>
        <time>2014-04-07T07:54:07Z</time>
      </trkpt>
      <trkpt lat="43.93853" lon="5.10855">
        <ele>227.49</ele>
        <time>2014-04-07T07:54:22Z</time>
      </trkpt>
      <trkpt lat="43.93848" lon="5.10849">
        <ele>227.97</ele>
        <time>2014-04-07T07:54:36Z</time>
      </trkpt>
      <trkpt lat="43.93847" lon="5.10838">
        <ele>228.45</ele>
        <time>2014-04-07T07:54:47Z</time>
      </trkpt>
      <trkpt lat="43.93846" lon="5.10836">
        <ele>228.45</ele>
        <time>2014-04-07T07:54:49Z</time>
      </trkpt>
      <trkpt lat="43.93841" lon="5.10823">
        <ele>229.41</ele>
        <time>2014-04-07T07:55:03Z</time>
      </trkpt>
      <trkpt lat="43.93841" lon="5.10812">
        <ele>229.89</ele>
        <time>2014-04-07T07:55:17Z</time>
      </trkpt>
      <trkpt lat="43.93846" lon="5.10802">
        <ele>230.85</ele>
        <time>2014-04-07T07:55:32Z</time>
      </trkpt>
      <trkpt lat="43.93852" lon="5.10789">
        <ele>232.3</ele>
        <time>2014-04-07T07:55:46Z</time>
      </trkpt>
      <trkpt lat="43.93852" lon="5.10772">
        <ele>233.74</ele>
        <time>2014-04-07T07:56:02Z</time>
      </trkpt>
      <trkpt lat="43.9385" lon="5.10755">
        <ele>234.7</ele>
        <time>2014-04-07T07:56:15Z</time>
      </trkpt>
      <trkpt lat="43.93848" lon="5.10752">
        <ele>235.18</ele>
        <time>2014-04-07T07:56:18Z</time>
      </trkpt>
      <trkpt lat="43.9384" lon="5.10741">
        <ele>237.1</ele>
        <time>2014-04-07T07:56:32Z</time>
      </trkpt>
      <trkpt lat="43.9384" lon="5.10738">
        <ele>237.58</ele>
        <time>2014-04-07T07:56:35Z</time>
      </trkpt>
      <trkpt lat="43.93848" lon="5.10733">
        <ele>239.02</ele>
        <time>2014-04-07T07:56:48Z</time>
      </trkpt>
      <trkpt lat="43.93853" lon="5.10736">
        <ele>239.99</ele>
        <time>2014-04-07T07:57:00Z</time>
      </trkpt>
      <trkpt lat="43.93857" lon="5.10738">
        <ele>239.99</ele>
        <time>2014-04-07T07:57:14Z</time>
      </trkpt>
      <trkpt lat="43.93857" lon="5.10739">
        <ele>239.51</ele>
        <time>2014-04-07T07:57:31Z</time>
      </trkpt>
      <trkpt lat="43.93855" lon="5.1074">
        <ele>239.51</ele>
        <time>2014-04-07T07:57:46Z</time>
      </trkpt>
      <trkpt lat="43.93852" lon="5.10736">
        <ele>239.99</ele>
        <time>2014-04-07T07:58:02Z</time>
      </trkpt>
      <trkpt lat="43.9385" lon="5.10735">
        <ele>239.99</ele>
        <time>2014-04-07T07:58:27Z</time>
      </trkpt>
      <trkpt lat="43.93856" lon="5.10735">
        <ele>239.99</ele>
        <time>2014-04-07T07:58:47Z</time>
      </trkpt>
      <trkpt lat="43.93853" lon="5.10733">
        <ele>239.99</ele>
        <time>2014-04-07T07:59:02Z</time>
      </trkpt>
      <trkpt lat="43.93856" lon="5.1074">
        <ele>240.47</ele>
        <time>2014-04-07T07:59:14Z</time>
      </trkpt>
      <trkpt lat="43.93859" lon="5.1074">
        <ele>240.95</ele>
        <time>2014-04-07T07:59:39Z</time>
      </trkpt>
      <trkpt lat="43.93858" lon="5.10735">
        <ele>240.95</ele>
        <time>2014-04-07T07:59:56Z</time>
      </trkpt>
      <trkpt lat="43.93857" lon="5.10732">
        <ele>240.95</ele>
        <time>2014-04-07T08:00:13Z</time>
      </trkpt>
      <trkpt lat="43.93858" lon="5.10734">
        <ele>240.95</ele>
        <time>2014-04-07T08:00:30Z</time>
      </trkpt>
      <trkpt lat="43.93857" lon="5.10729">
        <ele>240.95</ele>
        <time>2014-04-07T08:00:50Z</time>
      </trkpt>
      <trkpt lat="43.93858" lon="5.10728">
        <ele>241.43</ele>
        <time>2014-04-07T08:01:05Z</time>
      </trkpt>
      <trkpt lat="43.93862" lon="5.10742">
        <ele>241.43</ele>
        <time>2014-04-07T08:01:22Z</time>
      </trkpt>
      <trkpt lat="43.93875" lon="5.10741">
        <ele>242.39</ele>
        <time>2014-04-07T08:01:38Z</time>
      </trkpt>
      <trkpt lat="43.93884" lon="5.10746">
        <ele>243.35</ele>
        <time>2014-04-07T08:01:50Z</time>
      </trkpt>
      <trkpt lat="43.93894" lon="5.10751">
        <ele>244.79</ele>
        <time>2014-04-07T08:02:02Z</time>
      </trkpt>
      <trkpt lat="43.93907" lon="5.10753">
        <ele>246.72</ele>
        <time>2014-04-07T08:02:15Z</time>
      </trkpt>
      <trkpt lat="43.93922" lon="5.10751">
        <ele>248.64</ele>
        <time>2014-04-07T08:02:30Z</time>
      </trkpt>
      <trkpt lat="43.93931" lon="5.10747">
        <ele>250.08</ele>
        <time>2014-04-07T08:02:42Z</time>
      </trkpt>
      <trkpt lat="43.93942" lon="5.1075">
        <ele>251.04</ele>
        <time>2014-04-07T08:02:55Z</time>
      </trkpt>
      <trkpt lat="43.93956" lon="5.10751">
        <ele>252.96</ele>
        <time>2014-04-07T08:03:09Z</time>
      </trkpt>
      <trkpt lat="43.93959" lon="5.10752">
        <ele>253.44</ele>
        <time>2014-04-07T08:03:12Z</time>
      </trkpt>
      <trkpt lat="43.93965" lon="5.10754">
        <ele>254.41</ele>
        <time>2014-04-07T08:03:19Z</time>
      </trkpt>
      <trkpt lat="43.93977" lon="5.1076">
        <ele>255.85</ele>
        <time>2014-04-07T08:03:33Z</time>
      </trkpt>
      <trkpt lat="43.93983" lon="5.10763">
        <ele>257.29</ele>
        <time>2014-04-07T08:03:40Z</time>
      </trkpt>
      <trkpt lat="43.93995" lon="5.10771">
        <ele>258.73</ele>
        <time>2014-04-07T08:03:55Z</time>
      </trkpt>
      <trkpt lat="43.93992" lon="5.10775">
        <ele>258.25</ele>
        <time>2014-04-07T08:04:07Z</time>
      </trkpt>
      <trkpt lat="43.93986" lon="5.10792">
        <ele>257.77</ele>
        <time>2014-04-07T08:04:22Z</time>
      </trkpt>
      <trkpt lat="43.93984" lon="5.10812">
        <ele>257.77</ele>
        <time>2014-04-07T08:04:38Z</time>
      </trkpt>
      <trkpt lat="43.93982" lon="5.10817">
        <ele>257.29</ele>
        <time>2014-04-07T08:04:43Z</time>
      </trkpt>
      <trkpt lat="43.93979" lon="5.10817">
        <ele>257.29</ele>
        <time>2014-04-07T08:04:46Z</time>
      </trkpt>
      <trkpt lat="43.93966" lon="5.10818">
        <ele>256.33</ele>
        <time>2014-04-07T08:05:00Z</time>
      </trkpt>
      <trkpt lat="43.93958" lon="5.10838">
        <ele>255.37</ele>
        <time>2014-04-07T08:05:15Z</time>
      </trkpt>
      <trkpt lat="43.93958" lon="5.10839">
        <ele>255.37</ele>
        <time>2014-04-07T08:05:16Z</time>
      </trkpt>
      <trkpt lat="43.93947" lon="5.10851">
        <ele>254.41</ele>
        <time>2014-04-07T08:05:29Z</time>
      </trkpt>
      <trkpt lat="43.93952" lon="5.10853">
        <ele>254.41</ele>
        <time>2014-04-07T08:05:42Z</time>
      </trkpt>
      <trkpt lat="43.93957" lon="5.10852">
        <ele>254.89</ele>
        <time>2014-04-07T08:05:47Z</time>
      </trkpt>
      <trkpt lat="43.93966" lon="5.1086">
        <ele>255.37</ele>
        <time>2014-04-07T08:06:00Z</time>
      </trkpt>
      <trkpt lat="43.93974" lon="5.10863">
        <ele>255.85</ele>
        <time>2014-04-07T08:06:14Z</time>
      </trkpt>
      <trkpt lat="43.93974" lon="5.10864">
        <ele>255.85</ele>
        <time>2014-04-07T08:06:15Z</time>
      </trkpt>
      <trkpt lat="43.93991" lon="5.10875">
        <ele>255.85</ele>
        <time>2014-04-07T08:06:31Z</time>
      </trkpt>
      <trkpt lat="43.94001" lon="5.1088">
        <ele>256.33</ele>
        <time>2014-04-07T08:06:44Z</time>
      </trkpt>
      <trkpt lat="43.9401" lon="5.10887">
        <ele>255.85</ele>
        <time>2014-04-07T08:06:56Z</time>
      </trkpt>
      <trkpt lat="43.94007" lon="5.10898">
        <ele>253.93</ele>
        <time>2014-04-07T08:07:11Z</time>
      </trkpt>
      <trkpt lat="43.94009" lon="5.10898">
        <ele>253.93</ele>
        <time>2014-04-07T08:07:16Z</time>
      </trkpt>
      <trkpt lat="43.94009" lon="5.10882">
        <ele>255.85</ele>
        <time>2014-04-07T08:07:29Z</time>
      </trkpt>
      <trkpt lat="43.94007" lon="5.10882">
        <ele>255.85</ele>
        <time>2014-04-07T08:07:31Z</time>
      </trkpt>
      <trkpt lat="43.93996" lon="5.10876">
        <ele>255.85</ele>
        <time>2014-04-07T08:07:41Z</time>
      </trkpt>
      <trkpt lat="43.9399" lon="5.10875">
        <ele>255.85</ele>
        <time>2014-04-07T08:07:46Z</time>
      </trkpt>
      <trkpt lat="43.93979" lon="5.10867">
        <ele>255.85</ele>
        <time>2014-04-07T08:07:57Z</time>
      </trkpt>
      <trkpt lat="43.93977" lon="5.10864">
        <ele>255.37</ele>
        <time>2014-04-07T08:07:59Z</time>
      </trkpt>
      <trkpt lat="43.93959" lon="5.10852">
        <ele>254.41</ele>
        <time>2014-04-07T08:08:15Z</time>
      </trkpt>
      <trkpt lat="43.93942" lon="5.10839">
        <ele>252.96</ele>
        <time>2014-04-07T08:08:30Z</time>
      </trkpt>
      <trkpt lat="43.93924" lon="5.10827">
        <ele>252</ele>
        <time>2014-04-07T08:08:48Z</time>
      </trkpt>
      <trkpt lat="43.93909" lon="5.10817">
        <ele>250.08</ele>
        <time>2014-04-07T08:09:02Z</time>
      </trkpt>
      <trkpt lat="43.93901" lon="5.10812">
        <ele>249.12</ele>
        <time>2014-04-07T08:09:15Z</time>
      </trkpt>
      <trkpt lat="43.93899" lon="5.10818">
        <ele>246.23</ele>
        <time>2014-04-07T08:09:28Z</time>
      </trkpt>
      <trkpt lat="43.939" lon="5.10832">
        <ele>245.27</ele>
        <time>2014-04-07T08:09:40Z</time>
      </trkpt>
      <trkpt lat="43.93906" lon="5.10838">
        <ele>245.27</ele>
        <time>2014-04-07T08:09:47Z</time>
      </trkpt>
      <trkpt lat="43.93914" lon="5.10843">
        <ele>244.31</ele>
        <time>2014-04-07T08:09:56Z</time>
      </trkpt>
      <trkpt lat="43.9392" lon="5.10851">
        <ele>244.79</ele>
        <time>2014-04-07T08:10:03Z</time>
      </trkpt>
      <trkpt lat="43.93928" lon="5.10861">
        <ele>245.27</ele>
        <time>2014-04-07T08:10:12Z</time>
      </trkpt>
      <trkpt lat="43.93941" lon="5.10879">
        <ele>244.79</ele>
        <time>2014-04-07T08:10:26Z</time>
      </trkpt>
      <trkpt lat="43.93948" lon="5.10885">
        <ele>244.31</ele>
        <time>2014-04-07T08:10:31Z</time>
      </trkpt>
      <trkpt lat="43.93964" lon="5.10898">
        <ele>244.31</ele>
        <time>2014-04-07T08:10:47Z</time>
      </trkpt>
      <trkpt lat="43.93971" lon="5.10908">
        <ele>244.79</ele>
        <time>2014-04-07T08:10:57Z</time>
      </trkpt>
      <trkpt lat="43.9398" lon="5.10921">
        <ele>245.75</ele>
        <time>2014-04-07T08:11:04Z</time>
      </trkpt>
      <trkpt lat="43.93985" lon="5.10936">
        <ele>246.23</ele>
        <time>2014-04-07T08:11:19Z</time>
      </trkpt>
      <trkpt lat="43.93983" lon="5.10947">
        <ele>244.79</ele>
        <time>2014-04-07T08:11:33Z</time>
      </trkpt>
      <trkpt lat="43.93976" lon="5.10955">
        <ele>242.87</ele>
        <time>2014-04-07T08:11:47Z</time>
      </trkpt>
      <trkpt lat="43.9397" lon="5.10964">
        <ele>240.95</ele>
        <time>2014-04-07T08:12:04Z</time>
      </trkpt>
      <trkpt lat="43.93968" lon="5.10962">
        <ele>240.95</ele>
        <time>2014-04-07T08:12:20Z</time>
      </trkpt>
      <trkpt lat="43.93967" lon="5.10967">
        <ele>240.47</ele>
        <time>2014-04-07T08:12:37Z</time>
      </trkpt>
      <trkpt lat="43.93966" lon="5.10968">
        <ele>240.47</ele>
        <time>2014-04-07T08:12:49Z</time>
      </trkpt>
      <trkpt lat="43.93966" lon="5.10968">
        <ele>240.95</ele>
        <time>2014-04-07T08:13:13Z</time>
      </trkpt>
      <trkpt lat="43.93966" lon="5.10967">
        <ele>240.95</ele>
        <time>2014-04-07T08:13:34Z</time>
      </trkpt>
      <trkpt lat="43.93965" lon="5.10967">
        <ele>240.95</ele>
        <time>2014-04-07T08:14:01Z</time>
      </trkpt>
      <trkpt lat="43.93966" lon="5.10966">
        <ele>240.47</ele>
        <time>2014-04-07T08:14:35Z</time>
      </trkpt>
      <trkpt lat="43.93965" lon="5.10968">
        <ele>240.95</ele>
        <time>2014-04-07T08:15:03Z</time>
      </trkpt>
      <trkpt lat="43.93966" lon="5.10969">
        <ele>240.95</ele>
        <time>2014-04-07T08:15:30Z</time>
      </trkpt>
      <trkpt lat="43.93965" lon="5.10968">
        <ele>240.95</ele>
        <time>2014-04-07T08:15:54Z</time>
      </trkpt>
      <trkpt lat="43.93966" lon="5.10966">
        <ele>240.95</ele>
        <time>2014-04-07T08:16:22Z</time>
      </trkpt>
      <trkpt lat="43.93965" lon="5.10966">
        <ele>240.95</ele>
        <time>2014-04-07T08:16:39Z</time>
      </trkpt>
      <trkpt lat="43.93967" lon="5.10962">
        <ele>241.43</ele>
        <time>2014-04-07T08:16:58Z</time>
      </trkpt>
      <trkpt lat="43.93973" lon="5.10955">
        <ele>242.87</ele>
        <time>2014-04-07T08:17:12Z</time>
      </trkpt>
      <trkpt lat="43.93979" lon="5.10947">
        <ele>244.79</ele>
        <time>2014-04-07T08:17:26Z</time>
      </trkpt>
      <trkpt lat="43.93982" lon="5.10941">
        <ele>246.23</ele>
        <time>2014-04-07T08:17:39Z</time>
      </trkpt>
      <trkpt lat="43.93984" lon="5.10942">
        <ele>246.72</ele>
        <time>2014-04-07T08:17:41Z</time>
      </trkpt>
      <trkpt lat="43.93996" lon="5.10949">
        <ele>247.68</ele>
        <time>2014-04-07T08:17:55Z</time>
      </trkpt>
      <trkpt lat="43.94007" lon="5.10953">
        <ele>249.12</ele>
        <time>2014-04-07T08:18:10Z</time>
      </trkpt>
      <trkpt lat="43.94019" lon="5.10962">
        <ele>250.08</ele>
        <time>2014-04-07T08:18:25Z</time>
      </trkpt>
      <trkpt lat="43.94023" lon="5.10969">
        <ele>250.08</ele>
        <time>2014-04-07T08:18:32Z</time>
      </trkpt>
      <trkpt lat="43.9403" lon="5.10973">
        <ele>252</ele>
        <time>2014-04-07T08:18:46Z</time>
      </trkpt>
      <trkpt lat="43.94038" lon="5.1098">
        <ele>253.44</ele>
        <time>2014-04-07T08:19:02Z</time>
      </trkpt>
      <trkpt lat="43.94043" lon="5.10984">
        <ele>252.96</ele>
        <time>2014-04-07T08:19:17Z</time>
      </trkpt>
      <trkpt lat="43.94051" lon="5.1099">
        <ele>254.41</ele>
        <time>2014-04-07T08:19:31Z</time>
      </trkpt>
      <trkpt lat="43.94059" lon="5.11001">
        <ele>255.37</ele>
        <time>2014-04-07T08:19:46Z</time>
      </trkpt>
      <trkpt lat="43.94069" lon="5.11006">
        <ele>256.81</ele>
        <time>2014-04-07T08:19:59Z</time>
      </trkpt>
      <trkpt lat="43.94079" lon="5.11014">
        <ele>258.25</ele>
        <time>2014-04-07T08:20:13Z</time>
      </trkpt>
      <trkpt lat="43.94086" lon="5.11023">
        <ele>259.69</ele>
        <time>2014-04-07T08:20:24Z</time>
      </trkpt>
      <trkpt lat="43.94098" lon="5.11032">
        <ele>260.65</ele>
        <time>2014-04-07T08:20:39Z</time>
      </trkpt>
      <trkpt lat="43.94109" lon="5.11034">
        <ele>261.14</ele>
        <time>2014-04-07T08:20:53Z</time>
      </trkpt>
      <trkpt lat="43.9412" lon="5.11035">
        <ele>262.58</ele>
        <time>2014-04-07T08:21:07Z</time>
      </trkpt>
      <trkpt lat="43.9413" lon="5.11034">
        <ele>263.54</ele>
        <time>2014-04-07T08:21:19Z</time>
      </trkpt>
      <trkpt lat="43.94139" lon="5.1103">
        <ele>264.98</ele>
        <time>2014-04-07T08:21:33Z</time>
      </trkpt>
      <trkpt lat="43.94139" lon="5.11029">
        <ele>264.98</ele>
        <time>2014-04-07T08:21:36Z</time>
      </trkpt>
      <trkpt lat="43.94149" lon="5.11032">
        <ele>265.94</ele>
        <time>2014-04-07T08:21:49Z</time>
      </trkpt>
      <trkpt lat="43.94157" lon="5.11033">
        <ele>267.38</ele>
        <time>2014-04-07T08:22:00Z</time>
      </trkpt>
      <trkpt lat="43.94169" lon="5.11037">
        <ele>269.31</ele>
        <time>2014-04-07T08:22:14Z</time>
      </trkpt>
      <trkpt lat="43.9418" lon="5.11047">
        <ele>270.75</ele>
        <time>2014-04-07T08:22:28Z</time>
      </trkpt>
      <trkpt lat="43.94186" lon="5.11046">
        <ele>272.19</ele>
        <time>2014-04-07T08:22:39Z</time>
      </trkpt>
      <trkpt lat="43.94197" lon="5.11046">
        <ele>273.63</ele>
        <time>2014-04-07T08:22:53Z</time>
      </trkpt>
      <trkpt lat="43.94209" lon="5.11046">
        <ele>274.59</ele>
        <time>2014-04-07T08:23:07Z</time>
      </trkpt>
      <trkpt lat="43.9422" lon="5.11047">
        <ele>275.56</ele>
        <time>2014-04-07T08:23:21Z</time>
      </trkpt>
      <trkpt lat="43.94226" lon="5.11036">
        <ele>277</ele>
        <time>2014-04-07T08:23:33Z</time>
      </trkpt>
      <trkpt lat="43.94239" lon="5.11035">
        <ele>277.96</ele>
        <time>2014-04-07T08:23:48Z</time>
      </trkpt>
      <trkpt lat="43.94243" lon="5.11034">
        <ele>278.44</ele>
        <time>2014-04-07T08:23:52Z</time>
      </trkpt>
      <trkpt lat="43.94254" lon="5.11026">
        <ele>279.4</ele>
        <time>2014-04-07T08:24:06Z</time>
      </trkpt>
      <trkpt lat="43.94267" lon="5.11022">
        <ele>280.84</ele>
        <time>2014-04-07T08:24:21Z</time>
      </trkpt>
      <trkpt lat="43.94275" lon="5.11021">
        <ele>281.32</ele>
        <time>2014-04-07T08:24:33Z</time>
      </trkpt>
      <trkpt lat="43.94286" lon="5.11025">
        <ele>282.28</ele>
        <time>2014-04-07T08:24:46Z</time>
      </trkpt>
      <trkpt lat="43.94299" lon="5.1103">
        <ele>283.25</ele>
        <time>2014-04-07T08:25:00Z</time>
      </trkpt>
      <trkpt lat="43.94308" lon="5.11039">
        <ele>283.73</ele>
        <time>2014-04-07T08:25:13Z</time>
      </trkpt>
      <trkpt lat="43.94313" lon="5.11043">
        <ele>283.73</ele>
        <time>2014-04-07T08:25:29Z</time>
      </trkpt>
      <trkpt lat="43.94312" lon="5.1104">
        <ele>283.73</ele>
        <time>2014-04-07T08:25:47Z</time>
      </trkpt>
      <trkpt lat="43.9431" lon="5.11037">
        <ele>283.73</ele>
        <time>2014-04-07T08:26:10Z</time>
      </trkpt>
      <trkpt lat="43.94311" lon="5.11039">
        <ele>283.73</ele>
        <time>2014-04-07T08:26:39Z</time>
      </trkpt>
      <trkpt lat="43.94311" lon="5.1104">
        <ele>283.73</ele>
        <time>2014-04-07T08:26:53Z</time>
      </trkpt>
      <trkpt lat="43.9432" lon="5.11042">
        <ele>284.21</ele>
        <time>2014-04-07T08:27:07Z</time>
      </trkpt>
      <trkpt lat="43.94324" lon="5.11041">
        <ele>284.69</ele>
        <time>2014-04-07T08:27:20Z</time>
      </trkpt>
      <trkpt lat="43.94324" lon="5.1103">
        <ele>284.69</ele>
        <time>2014-04-07T08:27:32Z</time>
      </trkpt>
      <trkpt lat="43.94327" lon="5.11019">
        <ele>284.69</ele>
        <time>2014-04-07T08:27:44Z</time>
      </trkpt>
      <trkpt lat="43.94333" lon="5.11019">
        <ele>285.65</ele>
        <time>2014-04-07T08:27:53Z</time>
      </trkpt>
      <trkpt lat="43.94335" lon="5.11024">
        <ele>285.65</ele>
        <time>2014-04-07T08:28:13Z</time>
      </trkpt>
      <trkpt lat="43.94335" lon="5.11023">
        <ele>285.65</ele>
        <time>2014-04-07T08:28:37Z</time>
      </trkpt>
      <trkpt lat="43.94342" lon="5.11017">
        <ele>286.13</ele>
        <time>2014-04-07T08:28:53Z</time>
      </trkpt>
      <trkpt lat="43.94344" lon="5.11008">
        <ele>286.13</ele>
        <time>2014-04-07T08:29:11Z</time>
      </trkpt>
      <trkpt lat="43.94347" lon="5.11007">
        <ele>286.13</ele>
        <time>2014-04-07T08:29:27Z</time>
      </trkpt>
      <trkpt lat="43.94347" lon="5.11005">
        <ele>286.13</ele>
        <time>2014-04-07T08:29:37Z</time>
      </trkpt>
      <trkpt lat="43.94359" lon="5.11014">
        <ele>287.57</ele>
        <time>2014-04-07T08:29:51Z</time>
      </trkpt>
      <trkpt lat="43.9437" lon="5.11022">
        <ele>288.05</ele>
        <time>2014-04-07T08:30:05Z</time>
      </trkpt>
      <trkpt lat="43.94378" lon="5.11026">
        <ele>289.01</ele>
        <time>2014-04-07T08:30:18Z</time>
      </trkpt>
      <trkpt lat="43.94375" lon="5.11024">
        <ele>289.01</ele>
        <time>2014-04-07T08:30:41Z</time>
      </trkpt>
      <trkpt lat="43.94374" lon="5.11022">
        <ele>289.01</ele>
        <time>2014-04-07T08:31:05Z</time>
      </trkpt>
      <trkpt lat="43.94377" lon="5.11024">
        <ele>288.53</ele>
        <time>2014-04-07T08:31:25Z</time>
      </trkpt>
      <trkpt lat="43.94375" lon="5.11026">
        <ele>288.53</ele>
        <time>2014-04-07T08:31:39Z</time>
      </trkpt>
      <trkpt lat="43.94375" lon="5.11027">
        <ele>288.53</ele>
        <time>2014-04-07T08:31:57Z</time>
      </trkpt>
      <trkpt lat="43.94375" lon="5.11024">
        <ele>288.53</ele>
        <time>2014-04-07T08:32:10Z</time>
      </trkpt>
      <trkpt lat="43.94373" lon="5.11025">
        <ele>288.53</ele>
        <time>2014-04-07T08:32:25Z</time>
      </trkpt>
      <trkpt lat="43.94374" lon="5.11026">
        <ele>287.57</ele>
        <time>2014-04-07T08:32:27Z</time>
      </trkpt>
      <trkpt lat="43.94373" lon="5.11025">
        <ele>297.67</ele>
        <time>2014-04-07T08:41:24Z</time>
      </trkpt>
      <trkpt lat="43.94381" lon="5.11044">
        <ele>297.67</ele>
        <time>2014-04-07T08:41:30Z</time>
      </trkpt>
      <trkpt lat="43.94375" lon="5.11029">
        <ele>296.7</ele>
        <time>2014-04-07T08:41:51Z</time>
      </trkpt>
      <trkpt lat="43.94376" lon="5.1103">
        <ele>296.7</ele>
        <time>2014-04-07T08:42:07Z</time>
      </trkpt>
      <trkpt lat="43.94378" lon="5.11028">
        <ele>296.7</ele>
        <time>2014-04-07T08:42:27Z</time>
      </trkpt>
      <trkpt lat="43.94376" lon="5.11024">
        <ele>296.7</ele>
        <time>2014-04-07T08:42:50Z</time>
      </trkpt>
      <trkpt lat="43.94376" lon="5.11023">
        <ele>296.7</ele>
        <time>2014-04-07T08:43:12Z</time>
      </trkpt>
      <trkpt lat="43.94374" lon="5.11021">
        <ele>297.18</ele>
        <time>2014-04-07T08:43:41Z</time>
      </trkpt>
      <trkpt lat="43.94378" lon="5.11025">
        <ele>297.18</ele>
        <time>2014-04-07T08:43:59Z</time>
      </trkpt>
      <trkpt lat="43.94381" lon="5.11034">
        <ele>296.7</ele>
        <time>2014-04-07T08:44:17Z</time>
      </trkpt>
      <trkpt lat="43.94388" lon="5.11039">
        <ele>297.18</ele>
        <time>2014-04-07T08:44:31Z</time>
      </trkpt>
      <trkpt lat="43.94397" lon="5.11045">
        <ele>298.15</ele>
        <time>2014-04-07T08:44:47Z</time>
      </trkpt>
      <trkpt lat="43.9441" lon="5.11057">
        <ele>299.59</ele>
        <time>2014-04-07T08:45:03Z</time>
      </trkpt>
      <trkpt lat="43.94421" lon="5.11066">
        <ele>300.55</ele>
        <time>2014-04-07T08:45:18Z</time>
      </trkpt>
      <trkpt lat="43.94434" lon="5.11083">
        <ele>301.99</ele>
        <time>2014-04-07T08:45:36Z</time>
      </trkpt>
      <trkpt lat="43.94443" lon="5.11092">
        <ele>303.43</ele>
        <time>2014-04-07T08:45:51Z</time>
      </trkpt>
      <trkpt lat="43.9445" lon="5.111">
        <ele>303.91</ele>
        <time>2014-04-07T08:46:06Z</time>
      </trkpt>
      <trkpt lat="43.94456" lon="5.11103">
        <ele>304.88</ele>
        <time>2014-04-07T08:46:21Z</time>
      </trkpt>
      <trkpt lat="43.94468" lon="5.1111">
        <ele>306.32</ele>
        <time>2014-04-07T08:46:38Z</time>
      </trkpt>
      <trkpt lat="43.94479" lon="5.11116">
        <ele>307.76</ele>
        <time>2014-04-07T08:46:52Z</time>
      </trkpt>
      <trkpt lat="43.94486" lon="5.11121">
        <ele>308.72</ele>
        <time>2014-04-07T08:47:08Z</time>
      </trkpt>
      <trkpt lat="43.94491" lon="5.11123">
        <ele>309.68</ele>
        <time>2014-04-07T08:47:23Z</time>
      </trkpt>
      <trkpt lat="43.94495" lon="5.1113">
        <ele>310.16</ele>
        <time>2014-04-07T08:47:37Z</time>
      </trkpt>
      <trkpt lat="43.94509" lon="5.11143">
        <ele>311.12</ele>
        <time>2014-04-07T08:47:53Z</time>
      </trkpt>
      <trkpt lat="43.94522" lon="5.11149">
        <ele>312.09</ele>
        <time>2014-04-07T08:48:06Z</time>
      </trkpt>
      <trkpt lat="43.94532" lon="5.11157">
        <ele>312.09</ele>
        <time>2014-04-07T08:48:20Z</time>
      </trkpt>
      <trkpt lat="43.94545" lon="5.11168">
        <ele>313.05</ele>
        <time>2014-04-07T08:48:35Z</time>
      </trkpt>
      <trkpt lat="43.94558" lon="5.11179">
        <ele>314.01</ele>
        <time>2014-04-07T08:48:50Z</time>
      </trkpt>
      <trkpt lat="43.94562" lon="5.11183">
        <ele>314.01</ele>
        <time>2014-04-07T08:49:08Z</time>
      </trkpt>
      <trkpt lat="43.94572" lon="5.11185">
        <ele>314.97</ele>
        <time>2014-04-07T08:49:23Z</time>
      </trkpt>
      <trkpt lat="43.94588" lon="5.11194">
        <ele>315.93</ele>
        <time>2014-04-07T08:49:42Z</time>
      </trkpt>
      <trkpt lat="43.946" lon="5.11199">
        <ele>316.41</ele>
        <time>2014-04-07T08:49:56Z</time>
      </trkpt>
      <trkpt lat="43.94612" lon="5.11205">
        <ele>317.85</ele>
        <time>2014-04-07T08:50:12Z</time>
      </trkpt>
      <trkpt lat="43.9462" lon="5.11208">
        <ele>318.33</ele>
        <time>2014-04-07T08:50:24Z</time>
      </trkpt>
      <trkpt lat="43.94624" lon="5.11209">
        <ele>318.33</ele>
        <time>2014-04-07T08:50:42Z</time>
      </trkpt>
      <trkpt lat="43.9463" lon="5.1121">
        <ele>318.81</ele>
        <time>2014-04-07T08:50:55Z</time>
      </trkpt>
      <trkpt lat="43.94642" lon="5.11211">
        <ele>320.26</ele>
        <time>2014-04-07T08:51:06Z</time>
      </trkpt>
      <trkpt lat="43.94655" lon="5.11218">
        <ele>321.22</ele>
        <time>2014-04-07T08:51:22Z</time>
      </trkpt>
      <trkpt lat="43.94656" lon="5.11218">
        <ele>321.7</ele>
        <time>2014-04-07T08:51:23Z</time>
      </trkpt>
      <trkpt lat="43.94672" lon="5.1122">
        <ele>323.14</ele>
        <time>2014-04-07T08:51:37Z</time>
      </trkpt>
      <trkpt lat="43.94686" lon="5.11225">
        <ele>324.58</ele>
        <time>2014-04-07T08:51:54Z</time>
      </trkpt>
      <trkpt lat="43.9469" lon="5.11227">
        <ele>325.06</ele>
        <time>2014-04-07T08:51:58Z</time>
      </trkpt>
      <trkpt lat="43.94708" lon="5.11237">
        <ele>325.54</ele>
        <time>2014-04-07T08:52:15Z</time>
      </trkpt>
      <trkpt lat="43.94717" lon="5.11244">
        <ele>326.02</ele>
        <time>2014-04-07T08:52:28Z</time>
      </trkpt>
      <trkpt lat="43.94714" lon="5.11248">
        <ele>326.02</ele>
        <time>2014-04-07T08:52:43Z</time>
      </trkpt>
      <trkpt lat="43.94718" lon="5.11245">
        <ele>326.02</ele>
        <time>2014-04-07T08:52:54Z</time>
      </trkpt>
      <trkpt lat="43.94727" lon="5.11248">
        <ele>326.02</ele>
        <time>2014-04-07T08:53:07Z</time>
      </trkpt>
      <trkpt lat="43.94741" lon="5.11254">
        <ele>326.02</ele>
        <time>2014-04-07T08:53:22Z</time>
      </trkpt>
      <trkpt lat="43.94757" lon="5.11262">
        <ele>326.99</ele>
        <time>2014-04-07T08:53:39Z</time>
      </trkpt>
      <trkpt lat="43.94766" lon="5.11267">
        <ele>326.99</ele>
        <time>2014-04-07T08:53:58Z</time>
      </trkpt>
      <trkpt lat="43.94774" lon="5.11269">
        <ele>327.47</ele>
        <time>2014-04-07T08:54:16Z</time>
      </trkpt>
      <trkpt lat="43.94787" lon="5.11275">
        <ele>328.43</ele>
        <time>2014-04-07T08:54:30Z</time>
      </trkpt>
      <trkpt lat="43.94793" lon="5.11278">
        <ele>328.91</ele>
        <time>2014-04-07T08:54:37Z</time>
      </trkpt>
      <trkpt lat="43.94807" lon="5.11293">
        <ele>331.31</ele>
        <time>2014-04-07T08:54:54Z</time>
      </trkpt>
      <trkpt lat="43.94818" lon="5.11307">
        <ele>332.75</ele>
        <time>2014-04-07T08:55:09Z</time>
      </trkpt>
      <trkpt lat="43.94828" lon="5.11317">
        <ele>333.71</ele>
        <time>2014-04-07T08:55:22Z</time>
      </trkpt>
      <trkpt lat="43.94832" lon="5.11325">
        <ele>334.68</ele>
        <time>2014-04-07T08:55:29Z</time>
      </trkpt>
      <trkpt lat="43.94836" lon="5.11344">
        <ele>336.12</ele>
        <time>2014-04-07T08:55:43Z</time>
      </trkpt>
      <trkpt lat="43.94835" lon="5.11349">
        <ele>336.6</ele>
        <time>2014-04-07T08:55:57Z</time>
      </trkpt>
      <trkpt lat="43.94834" lon="5.11351">
        <ele>336.6</ele>
        <time>2014-04-07T08:56:09Z</time>
      </trkpt>
      <trkpt lat="43.94836" lon="5.11364">
        <ele>337.08</ele>
        <time>2014-04-07T08:56:24Z</time>
      </trkpt>
      <trkpt lat="43.94844" lon="5.11379">
        <ele>338.52</ele>
        <time>2014-04-07T08:56:39Z</time>
      </trkpt>
      <trkpt lat="43.94844" lon="5.11379">
        <ele>338.52</ele>
        <time>2014-04-07T08:56:52Z</time>
      </trkpt>
      <trkpt lat="43.94845" lon="5.11381">
        <ele>338.52</ele>
        <time>2014-04-07T08:57:14Z</time>
      </trkpt>
      <trkpt lat="43.94849" lon="5.11383">
        <ele>339.48</ele>
        <time>2014-04-07T08:57:19Z</time>
      </trkpt>
      <trkpt lat="43.94853" lon="5.11388">
        <ele>339.48</ele>
        <time>2014-04-07T08:57:33Z</time>
      </trkpt>
      <trkpt lat="43.94866" lon="5.11391">
        <ele>341.41</ele>
        <time>2014-04-07T08:57:47Z</time>
      </trkpt>
      <trkpt lat="43.94878" lon="5.11409">
        <ele>341.41</ele>
        <time>2014-04-07T08:58:02Z</time>
      </trkpt>
      <trkpt lat="43.94889" lon="5.11424">
        <ele>341.41</ele>
        <time>2014-04-07T08:58:17Z</time>
      </trkpt>
      <trkpt lat="43.94895" lon="5.11432">
        <ele>340.92</ele>
        <time>2014-04-07T08:58:32Z</time>
      </trkpt>
      <trkpt lat="43.94907" lon="5.11441">
        <ele>340.92</ele>
        <time>2014-04-07T08:58:47Z</time>
      </trkpt>
      <trkpt lat="43.94917" lon="5.11451">
        <ele>340.92</ele>
        <time>2014-04-07T08:58:58Z</time>
      </trkpt>
      <trkpt lat="43.94924" lon="5.11452">
        <ele>342.37</ele>
        <time>2014-04-07T08:59:05Z</time>
      </trkpt>
      <trkpt lat="43.94935" lon="5.11458">
        <ele>345.73</ele>
        <time>2014-04-07T08:59:20Z</time>
      </trkpt>
      <trkpt lat="43.94941" lon="5.11461">
        <ele>347.17</ele>
        <time>2014-04-07T08:59:36Z</time>
      </trkpt>
      <trkpt lat="43.94947" lon="5.11455">
        <ele>349.58</ele>
        <time>2014-04-07T08:59:49Z</time>
      </trkpt>
      <trkpt lat="43.94957" lon="5.11453">
        <ele>351.98</ele>
        <time>2014-04-07T09:00:02Z</time>
      </trkpt>
      <trkpt lat="43.94971" lon="5.11453">
        <ele>354.86</ele>
        <time>2014-04-07T09:00:19Z</time>
      </trkpt>
      <trkpt lat="43.94981" lon="5.11454">
        <ele>356.79</ele>
        <time>2014-04-07T09:00:32Z</time>
      </trkpt>
      <trkpt lat="43.94985" lon="5.11445">
        <ele>360.15</ele>
        <time>2014-04-07T09:00:47Z</time>
      </trkpt>
      <trkpt lat="43.9499" lon="5.11449">
        <ele>360.63</ele>
        <time>2014-04-07T09:01:05Z</time>
      </trkpt>
      <trkpt lat="43.94998" lon="5.11448">
        <ele>362.55</ele>
        <time>2014-04-07T09:01:19Z</time>
      </trkpt>
      <trkpt lat="43.95008" lon="5.11449">
        <ele>364.96</ele>
        <time>2014-04-07T09:01:34Z</time>
      </trkpt>
      <trkpt lat="43.95012" lon="5.11444">
        <ele>367.36</ele>
        <time>2014-04-07T09:01:48Z</time>
      </trkpt>
      <trkpt lat="43.95016" lon="5.11447">
        <ele>367.36</ele>
        <time>2014-04-07T09:02:07Z</time>
      </trkpt>
      <trkpt lat="43.95016" lon="5.11449">
        <ele>367.36</ele>
        <time>2014-04-07T09:02:27Z</time>
      </trkpt>
      <trkpt lat="43.95016" lon="5.11449">
        <ele>367.36</ele>
        <time>2014-04-07T09:02:56Z</time>
      </trkpt>
      <trkpt lat="43.95014" lon="5.11449">
        <ele>367.36</ele>
        <time>2014-04-07T09:03:22Z</time>
      </trkpt>
      <trkpt lat="43.95024" lon="5.11449">
        <ele>368.8</ele>
        <time>2014-04-07T09:03:45Z</time>
      </trkpt>
      <trkpt lat="43.95035" lon="5.11457">
        <ele>370.24</ele>
        <time>2014-04-07T09:04:00Z</time>
      </trkpt>
      <trkpt lat="43.95045" lon="5.11464">
        <ele>371.69</ele>
        <time>2014-04-07T09:04:15Z</time>
      </trkpt>
      <trkpt lat="43.9506" lon="5.11469">
        <ele>373.61</ele>
        <time>2014-04-07T09:04:32Z</time>
      </trkpt>
      <trkpt lat="43.95073" lon="5.11473">
        <ele>375.05</ele>
        <time>2014-04-07T09:04:50Z</time>
      </trkpt>
      <trkpt lat="43.95082" lon="5.11477">
        <ele>376.01</ele>
        <time>2014-04-07T09:05:06Z</time>
      </trkpt>
      <trkpt lat="43.95095" lon="5.11487">
        <ele>376.97</ele>
        <time>2014-04-07T09:05:19Z</time>
      </trkpt>
      <trkpt lat="43.95107" lon="5.11502">
        <ele>378.42</ele>
        <time>2014-04-07T09:05:36Z</time>
      </trkpt>
      <trkpt lat="43.95115" lon="5.11513">
        <ele>378.9</ele>
        <time>2014-04-07T09:05:52Z</time>
      </trkpt>
      <trkpt lat="43.95117" lon="5.11516">
        <ele>378.9</ele>
        <time>2014-04-07T09:05:55Z</time>
      </trkpt>
      <trkpt lat="43.95125" lon="5.11526">
        <ele>379.86</ele>
        <time>2014-04-07T09:06:10Z</time>
      </trkpt>
      <trkpt lat="43.95131" lon="5.11535">
        <ele>380.34</ele>
        <time>2014-04-07T09:06:28Z</time>
      </trkpt>
      <trkpt lat="43.95139" lon="5.11545">
        <ele>381.3</ele>
        <time>2014-04-07T09:06:42Z</time>
      </trkpt>
      <trkpt lat="43.95152" lon="5.11559">
        <ele>381.78</ele>
        <time>2014-04-07T09:06:57Z</time>
      </trkpt>
      <trkpt lat="43.95165" lon="5.11572">
        <ele>382.74</ele>
        <time>2014-04-07T09:07:14Z</time>
      </trkpt>
      <trkpt lat="43.95168" lon="5.11578">
        <ele>382.74</ele>
        <time>2014-04-07T09:07:36Z</time>
      </trkpt>
      <trkpt lat="43.95177" lon="5.11591">
        <ele>383.22</ele>
        <time>2014-04-07T09:07:52Z</time>
      </trkpt>
      <trkpt lat="43.95188" lon="5.11605">
        <ele>384.18</ele>
        <time>2014-04-07T09:08:09Z</time>
      </trkpt>
      <trkpt lat="43.952" lon="5.11619">
        <ele>385.63</ele>
        <time>2014-04-07T09:08:25Z</time>
      </trkpt>
      <trkpt lat="43.95204" lon="5.11631">
        <ele>386.59</ele>
        <time>2014-04-07T09:08:42Z</time>
      </trkpt>
      <trkpt lat="43.95212" lon="5.11643">
        <ele>387.55</ele>
        <time>2014-04-07T09:08:55Z</time>
      </trkpt>
      <trkpt lat="43.95218" lon="5.11655">
        <ele>388.51</ele>
        <time>2014-04-07T09:09:09Z</time>
      </trkpt>
      <trkpt lat="43.95227" lon="5.1167">
        <ele>389.95</ele>
        <time>2014-04-07T09:09:24Z</time>
      </trkpt>
      <trkpt lat="43.95235" lon="5.11683">
        <ele>390.91</ele>
        <time>2014-04-07T09:09:39Z</time>
      </trkpt>
      <trkpt lat="43.95238" lon="5.11698">
        <ele>392.84</ele>
        <time>2014-04-07T09:09:55Z</time>
      </trkpt>
      <trkpt lat="43.95243" lon="5.11711">
        <ele>393.8</ele>
        <time>2014-04-07T09:10:09Z</time>
      </trkpt>
      <trkpt lat="43.95251" lon="5.11727">
        <ele>395.24</ele>
        <time>2014-04-07T09:10:24Z</time>
      </trkpt>
      <trkpt lat="43.95258" lon="5.11742">
        <ele>396.68</ele>
        <time>2014-04-07T09:10:39Z</time>
      </trkpt>
      <trkpt lat="43.95264" lon="5.11754">
        <ele>397.64</ele>
        <time>2014-04-07T09:10:53Z</time>
      </trkpt>
      <trkpt lat="43.95272" lon="5.11769">
        <ele>399.57</ele>
        <time>2014-04-07T09:11:08Z</time>
      </trkpt>
      <trkpt lat="43.95273" lon="5.11777">
        <ele>399.57</ele>
        <time>2014-04-07T09:11:27Z</time>
      </trkpt>
      <trkpt lat="43.95275" lon="5.11776">
        <ele>399.57</ele>
        <time>2014-04-07T09:11:47Z</time>
      </trkpt>
      <trkpt lat="43.95275" lon="5.11775">
        <ele>399.57</ele>
        <time>2014-04-07T09:12:08Z</time>
      </trkpt>
      <trkpt lat="43.95273" lon="5.11772">
        <ele>399.57</ele>
        <time>2014-04-07T09:12:33Z</time>
      </trkpt>
      <trkpt lat="43.95274" lon="5.11776">
        <ele>399.08</ele>
        <time>2014-04-07T09:12:55Z</time>
      </trkpt>
      <trkpt lat="43.9528" lon="5.11786">
        <ele>399.57</ele>
        <time>2014-04-07T09:13:14Z</time>
      </trkpt>
      <trkpt lat="43.95285" lon="5.11796">
        <ele>400.53</ele>
        <time>2014-04-07T09:13:26Z</time>
      </trkpt>
      <trkpt lat="43.95293" lon="5.11801">
        <ele>401.97</ele>
        <time>2014-04-07T09:13:40Z</time>
      </trkpt>
      <trkpt lat="43.95298" lon="5.11815">
        <ele>401.49</ele>
        <time>2014-04-07T09:13:55Z</time>
      </trkpt>
      <trkpt lat="43.95305" lon="5.11834">
        <ele>401.97</ele>
        <time>2014-04-07T09:14:11Z</time>
      </trkpt>
      <trkpt lat="43.95311" lon="5.11847">
        <ele>402.45</ele>
        <time>2014-04-07T09:14:26Z</time>
      </trkpt>
      <trkpt lat="43.95318" lon="5.11863">
        <ele>402.93</ele>
        <time>2014-04-07T09:14:41Z</time>
      </trkpt>
      <trkpt lat="43.95324" lon="5.11877">
        <ele>403.41</ele>
        <time>2014-04-07T09:14:54Z</time>
      </trkpt>
      <trkpt lat="43.95329" lon="5.11895">
        <ele>404.37</ele>
        <time>2014-04-07T09:15:10Z</time>
      </trkpt>
      <trkpt lat="43.9534" lon="5.1191">
        <ele>404.37</ele>
        <time>2014-04-07T09:15:25Z</time>
      </trkpt>
      <trkpt lat="43.95349" lon="5.11926">
        <ele>404.85</ele>
        <time>2014-04-07T09:15:41Z</time>
      </trkpt>
      <trkpt lat="43.95354" lon="5.11935">
        <ele>405.33</ele>
        <time>2014-04-07T09:15:54Z</time>
      </trkpt>
      <trkpt lat="43.95362" lon="5.11952">
        <ele>405.33</ele>
        <time>2014-04-07T09:16:08Z</time>
      </trkpt>
      <trkpt lat="43.95369" lon="5.11973">
        <ele>406.29</ele>
        <time>2014-04-07T09:16:26Z</time>
      </trkpt>
      <trkpt lat="43.95378" lon="5.11993">
        <ele>406.77</ele>
        <time>2014-04-07T09:16:44Z</time>
      </trkpt>
      <trkpt lat="43.95381" lon="5.12006">
        <ele>407.26</ele>
        <time>2014-04-07T09:16:56Z</time>
      </trkpt>
      <trkpt lat="43.95385" lon="5.12027">
        <ele>407.26</ele>
        <time>2014-04-07T09:17:13Z</time>
      </trkpt>
      <trkpt lat="43.95389" lon="5.12045">
        <ele>407.74</ele>
        <time>2014-04-07T09:17:27Z</time>
      </trkpt>
      <trkpt lat="43.95393" lon="5.12061">
        <ele>408.22</ele>
        <time>2014-04-07T09:17:43Z</time>
      </trkpt>
      <trkpt lat="43.95388" lon="5.12079">
        <ele>409.18</ele>
        <time>2014-04-07T09:17:57Z</time>
      </trkpt>
      <trkpt lat="43.95375" lon="5.12087">
        <ele>409.66</ele>
        <time>2014-04-07T09:18:13Z</time>
      </trkpt>
      <trkpt lat="43.95359" lon="5.12088">
        <ele>409.18</ele>
        <time>2014-04-07T09:18:31Z</time>
      </trkpt>
      <trkpt lat="43.95347" lon="5.12088">
        <ele>408.7</ele>
        <time>2014-04-07T09:18:46Z</time>
      </trkpt>
      <trkpt lat="43.95332" lon="5.12085">
        <ele>408.22</ele>
        <time>2014-04-07T09:19:03Z</time>
      </trkpt>
      <trkpt lat="43.95329" lon="5.12083">
        <ele>407.74</ele>
        <time>2014-04-07T09:19:15Z</time>
      </trkpt>
      <trkpt lat="43.95327" lon="5.12079">
        <ele>407.74</ele>
        <time>2014-04-07T09:19:37Z</time>
      </trkpt>
      <trkpt lat="43.95322" lon="5.12077">
        <ele>406.77</ele>
        <time>2014-04-07T09:19:51Z</time>
      </trkpt>
      <trkpt lat="43.95312" lon="5.12077">
        <ele>405.33</ele>
        <time>2014-04-07T09:20:04Z</time>
      </trkpt>
      <trkpt lat="43.953" lon="5.12078">
        <ele>404.37</ele>
        <time>2014-04-07T09:20:20Z</time>
      </trkpt>
      <trkpt lat="43.95294" lon="5.12072">
        <ele>403.89</ele>
        <time>2014-04-07T09:20:40Z</time>
      </trkpt>
      <trkpt lat="43.95292" lon="5.12069">
        <ele>403.89</ele>
        <time>2014-04-07T09:21:14Z</time>
      </trkpt>
      <trkpt lat="43.95294" lon="5.12071">
        <ele>403.89</ele>
        <time>2014-04-07T09:21:45Z</time>
      </trkpt>
      <trkpt lat="43.95294" lon="5.12069">
        <ele>403.89</ele>
        <time>2014-04-07T09:22:09Z</time>
      </trkpt>
      <trkpt lat="43.95296" lon="5.1207">
        <ele>403.41</ele>
        <time>2014-04-07T09:22:41Z</time>
      </trkpt>
      <trkpt lat="43.95293" lon="5.12069">
        <ele>403.89</ele>
        <time>2014-04-07T09:23:04Z</time>
      </trkpt>
      <trkpt lat="43.95293" lon="5.1207">
        <ele>403.89</ele>
        <time>2014-04-07T09:23:30Z</time>
      </trkpt>
      <trkpt lat="43.95292" lon="5.1207">
        <ele>403.89</ele>
        <time>2014-04-07T09:23:54Z</time>
      </trkpt>
      <trkpt lat="43.95293" lon="5.1207">
        <ele>403.89</ele>
        <time>2014-04-07T09:24:15Z</time>
      </trkpt>
      <trkpt lat="43.95293" lon="5.1207">
        <ele>403.89</ele>
        <time>2014-04-07T09:24:39Z</time>
      </trkpt>
      <trkpt lat="43.95294" lon="5.12069">
        <ele>403.89</ele>
        <time>2014-04-07T09:25:02Z</time>
      </trkpt>
      <trkpt lat="43.95294" lon="5.12069">
        <ele>403.89</ele>
        <time>2014-04-07T09:25:17Z</time>
      </trkpt>
      <trkpt lat="43.95293" lon="5.12068">
        <ele>403.89</ele>
        <time>2014-04-07T09:25:47Z</time>
      </trkpt>
      <trkpt lat="43.95295" lon="5.12067">
        <ele>403.89</ele>
        <time>2014-04-07T09:26:14Z</time>
      </trkpt>
      <trkpt lat="43.95287" lon="5.12071">
        <ele>402.93</ele>
        <time>2014-04-07T09:26:34Z</time>
      </trkpt>
      <trkpt lat="43.95277" lon="5.12073">
        <ele>402.45</ele>
        <time>2014-04-07T09:26:52Z</time>
      </trkpt>
      <trkpt lat="43.95275" lon="5.1207">
        <ele>401.97</ele>
        <time>2014-04-07T09:27:15Z</time>
      </trkpt>
      <trkpt lat="43.95264" lon="5.12076">
        <ele>400.53</ele>
        <time>2014-04-07T09:27:29Z</time>
      </trkpt>
      <trkpt lat="43.95251" lon="5.1208">
        <ele>399.08</ele>
        <time>2014-04-07T09:27:44Z</time>
      </trkpt>
      <trkpt lat="43.95244" lon="5.1208">
        <ele>398.6</ele>
        <time>2014-04-07T09:27:57Z</time>
      </trkpt>
      <trkpt lat="43.95237" lon="5.12083">
        <ele>398.12</ele>
        <time>2014-04-07T09:28:12Z</time>
      </trkpt>
      <trkpt lat="43.95226" lon="5.12089">
        <ele>396.68</ele>
        <time>2014-04-07T09:28:27Z</time>
      </trkpt>
      <trkpt lat="43.95214" lon="5.12094">
        <ele>395.24</ele>
        <time>2014-04-07T09:28:42Z</time>
      </trkpt>
      <trkpt lat="43.95207" lon="5.12098">
        <ele>394.76</ele>
        <time>2014-04-07T09:28:57Z</time>
      </trkpt>
      <trkpt lat="43.95199" lon="5.12101">
        <ele>393.32</ele>
        <time>2014-04-07T09:29:16Z</time>
      </trkpt>
      <trkpt lat="43.95193" lon="5.12114">
        <ele>392.84</ele>
        <time>2014-04-07T09:29:30Z</time>
      </trkpt>
      <trkpt lat="43.95188" lon="5.12124">
        <ele>391.87</ele>
        <time>2014-04-07T09:29:40Z</time>
      </trkpt>
      <trkpt lat="43.95183" lon="5.12138">
        <ele>391.39</ele>
        <time>2014-04-07T09:29:54Z</time>
      </trkpt>
      <trkpt lat="43.95177" lon="5.12156">
        <ele>390.91</ele>
        <time>2014-04-07T09:30:10Z</time>
      </trkpt>
      <trkpt lat="43.9517" lon="5.1217">
        <ele>390.91</ele>
        <time>2014-04-07T09:30:23Z</time>
      </trkpt>
      <trkpt lat="43.95162" lon="5.1218">
        <ele>390.91</ele>
        <time>2014-04-07T09:30:35Z</time>
      </trkpt>
      <trkpt lat="43.9515" lon="5.12194">
        <ele>390.43</ele>
        <time>2014-04-07T09:30:51Z</time>
      </trkpt>
      <trkpt lat="43.95139" lon="5.12209">
        <ele>389.95</ele>
        <time>2014-04-07T09:31:07Z</time>
      </trkpt>
      <trkpt lat="43.95129" lon="5.12226">
        <ele>390.43</ele>
        <time>2014-04-07T09:31:26Z</time>
      </trkpt>
      <trkpt lat="43.95122" lon="5.12241">
        <ele>390.91</ele>
        <time>2014-04-07T09:31:41Z</time>
      </trkpt>
      <trkpt lat="43.9512" lon="5.12264">
        <ele>391.39</ele>
        <time>2014-04-07T09:31:57Z</time>
      </trkpt>
      <trkpt lat="43.95119" lon="5.12269">
        <ele>391.39</ele>
        <time>2014-04-07T09:32:01Z</time>
      </trkpt>
      <trkpt lat="43.95128" lon="5.12284">
        <ele>392.84</ele>
        <time>2014-04-07T09:32:17Z</time>
      </trkpt>
      <trkpt lat="43.95145" lon="5.12298">
        <ele>394.28</ele>
        <time>2014-04-07T09:32:37Z</time>
      </trkpt>
      <trkpt lat="43.9515" lon="5.123">
        <ele>394.28</ele>
        <time>2014-04-07T09:32:52Z</time>
      </trkpt>
      <trkpt lat="43.95161" lon="5.12299">
        <ele>395.24</ele>
        <time>2014-04-07T09:33:05Z</time>
      </trkpt>
      <trkpt lat="43.95167" lon="5.12303">
        <ele>395.24</ele>
        <time>2014-04-07T09:33:15Z</time>
      </trkpt>
      <trkpt lat="43.95175" lon="5.12306">
        <ele>394.28</ele>
        <time>2014-04-07T09:33:30Z</time>
      </trkpt>
      <trkpt lat="43.95177" lon="5.1231">
        <ele>393.32</ele>
        <time>2014-04-07T09:33:44Z</time>
      </trkpt>
      <trkpt lat="43.9518" lon="5.12314">
        <ele>390.91</ele>
        <time>2014-04-07T09:33:58Z</time>
      </trkpt>
      <trkpt lat="43.95182" lon="5.1232">
        <ele>388.99</ele>
        <time>2014-04-07T09:34:11Z</time>
      </trkpt>
      <trkpt lat="43.95183" lon="5.12327">
        <ele>387.55</ele>
        <time>2014-04-07T09:34:23Z</time>
      </trkpt>
      <trkpt lat="43.95182" lon="5.12333">
        <ele>385.63</ele>
        <time>2014-04-07T09:34:39Z</time>
      </trkpt>
      <trkpt lat="43.95178" lon="5.12335">
        <ele>384.18</ele>
        <time>2014-04-07T09:34:54Z</time>
      </trkpt>
      <trkpt lat="43.95175" lon="5.1234">
        <ele>383.7</ele>
        <time>2014-04-07T09:35:04Z</time>
      </trkpt>
      <trkpt lat="43.95175" lon="5.12347">
        <ele>381.78</ele>
        <time>2014-04-07T09:35:17Z</time>
      </trkpt>
      <trkpt lat="43.95178" lon="5.12353">
        <ele>380.34</ele>
        <time>2014-04-07T09:35:31Z</time>
      </trkpt>
      <trkpt lat="43.95176" lon="5.12359">
        <ele>378.9</ele>
        <time>2014-04-07T09:35:43Z</time>
      </trkpt>
      <trkpt lat="43.95173" lon="5.12363">
        <ele>376.97</ele>
        <time>2014-04-07T09:35:58Z</time>
      </trkpt>
      <trkpt lat="43.95176" lon="5.12371">
        <ele>374.57</ele>
        <time>2014-04-07T09:36:15Z</time>
      </trkpt>
      <trkpt lat="43.95174" lon="5.1238">
        <ele>372.65</ele>
        <time>2014-04-07T09:36:30Z</time>
      </trkpt>
      <trkpt lat="43.95174" lon="5.12382">
        <ele>372.17</ele>
        <time>2014-04-07T09:36:50Z</time>
      </trkpt>
      <trkpt lat="43.95175" lon="5.12392">
        <ele>369.76</ele>
        <time>2014-04-07T09:37:07Z</time>
      </trkpt>
      <trkpt lat="43.95175" lon="5.12396">
        <ele>368.8</ele>
        <time>2014-04-07T09:37:24Z</time>
      </trkpt>
      <trkpt lat="43.95178" lon="5.12396">
        <ele>367.84</ele>
        <time>2014-04-07T09:37:43Z</time>
      </trkpt>
      <trkpt lat="43.95182" lon="5.12405">
        <ele>364.96</ele>
        <time>2014-04-07T09:38:04Z</time>
      </trkpt>
      <trkpt lat="43.9517" lon="5.12423">
        <ele>363.04</ele>
        <time>2014-04-07T09:38:24Z</time>
      </trkpt>
      <trkpt lat="43.95159" lon="5.12418">
        <ele>360.63</ele>
        <time>2014-04-07T09:38:41Z</time>
      </trkpt>
      <trkpt lat="43.95152" lon="5.12426">
        <ele>359.67</ele>
        <time>2014-04-07T09:38:55Z</time>
      </trkpt>
      <trkpt lat="43.95141" lon="5.12435">
        <ele>360.63</ele>
        <time>2014-04-07T09:39:10Z</time>
      </trkpt>
      <trkpt lat="43.95141" lon="5.12433">
        <ele>360.63</ele>
        <time>2014-04-07T09:39:28Z</time>
      </trkpt>
      <trkpt lat="43.95141" lon="5.12429">
        <ele>360.15</ele>
        <time>2014-04-07T09:39:49Z</time>
      </trkpt>
      <trkpt lat="43.95128" lon="5.12431">
        <ele>359.67</ele>
        <time>2014-04-07T09:40:05Z</time>
      </trkpt>
      <trkpt lat="43.95115" lon="5.12421">
        <ele>358.71</ele>
        <time>2014-04-07T09:40:22Z</time>
      </trkpt>
      <trkpt lat="43.95101" lon="5.1241">
        <ele>358.71</ele>
        <time>2014-04-07T09:40:39Z</time>
      </trkpt>
      <trkpt lat="43.95089" lon="5.12403">
        <ele>358.71</ele>
        <time>2014-04-07T09:40:54Z</time>
      </trkpt>
      <trkpt lat="43.95076" lon="5.12395">
        <ele>359.19</ele>
        <time>2014-04-07T09:41:09Z</time>
      </trkpt>
      <trkpt lat="43.95069" lon="5.12393">
        <ele>358.71</ele>
        <time>2014-04-07T09:41:15Z</time>
      </trkpt>
      <trkpt lat="43.95055" lon="5.1239">
        <ele>357.75</ele>
        <time>2014-04-07T09:41:30Z</time>
      </trkpt>
      <trkpt lat="43.95046" lon="5.12385">
        <ele>356.31</ele>
        <time>2014-04-07T09:41:43Z</time>
      </trkpt>
      <trkpt lat="43.95033" lon="5.12377">
        <ele>353.42</ele>
        <time>2014-04-07T09:41:59Z</time>
      </trkpt>
      <trkpt lat="43.95025" lon="5.12367">
        <ele>351.5</ele>
        <time>2014-04-07T09:42:12Z</time>
      </trkpt>
      <trkpt lat="43.95011" lon="5.1237">
        <ele>348.62</ele>
        <time>2014-04-07T09:42:28Z</time>
      </trkpt>
      <trkpt lat="43.94993" lon="5.12378">
        <ele>348.13</ele>
        <time>2014-04-07T09:42:43Z</time>
      </trkpt>
      <trkpt lat="43.94987" lon="5.12376">
        <ele>348.13</ele>
        <time>2014-04-07T09:42:53Z</time>
      </trkpt>
      <trkpt lat="43.94977" lon="5.12376">
        <ele>348.62</ele>
        <time>2014-04-07T09:43:06Z</time>
      </trkpt>
      <trkpt lat="43.94975" lon="5.12375">
        <ele>348.62</ele>
        <time>2014-04-07T09:43:09Z</time>
      </trkpt>
      <trkpt lat="43.94962" lon="5.12365">
        <ele>346.69</ele>
        <time>2014-04-07T09:43:26Z</time>
      </trkpt>
      <trkpt lat="43.94952" lon="5.12356">
        <ele>345.73</ele>
        <time>2014-04-07T09:43:40Z</time>
      </trkpt>
      <trkpt lat="43.94939" lon="5.12351">
        <ele>343.33</ele>
        <time>2014-04-07T09:43:58Z</time>
      </trkpt>
      <trkpt lat="43.94923" lon="5.12348">
        <ele>341.41</ele>
        <time>2014-04-07T09:44:14Z</time>
      </trkpt>
      <trkpt lat="43.94918" lon="5.1234">
        <ele>340.92</ele>
        <time>2014-04-07T09:44:28Z</time>
      </trkpt>
      <trkpt lat="43.94913" lon="5.12339">
        <ele>340.44</ele>
        <time>2014-04-07T09:44:44Z</time>
      </trkpt>
      <trkpt lat="43.94911" lon="5.12334">
        <ele>340.44</ele>
        <time>2014-04-07T09:45:08Z</time>
      </trkpt>
      <trkpt lat="43.94907" lon="5.12337">
        <ele>340.44</ele>
        <time>2014-04-07T09:45:27Z</time>
      </trkpt>
      <trkpt lat="43.94901" lon="5.12348">
        <ele>339.96</ele>
        <time>2014-04-07T09:45:40Z</time>
      </trkpt>
      <trkpt lat="43.94901" lon="5.12354">
        <ele>339</ele>
        <time>2014-04-07T09:45:46Z</time>
      </trkpt>
      <trkpt lat="43.949" lon="5.12368">
        <ele>338.52</ele>
        <time>2014-04-07T09:45:58Z</time>
      </trkpt>
      <trkpt lat="43.94892" lon="5.12386">
        <ele>337.08</ele>
        <time>2014-04-07T09:46:14Z</time>
      </trkpt>
      <trkpt lat="43.94885" lon="5.12397">
        <ele>335.64</ele>
        <time>2014-04-07T09:46:26Z</time>
      </trkpt>
      <trkpt lat="43.94882" lon="5.12386">
        <ele>334.2</ele>
        <time>2014-04-07T09:46:38Z</time>
      </trkpt>
      <trkpt lat="43.94882" lon="5.12376">
        <ele>333.23</ele>
        <time>2014-04-07T09:46:46Z</time>
      </trkpt>
      <trkpt lat="43.94882" lon="5.12374">
        <ele>332.75</ele>
        <time>2014-04-07T09:46:48Z</time>
      </trkpt>
      <trkpt lat="43.9488" lon="5.12357">
        <ele>331.79</ele>
        <time>2014-04-07T09:47:02Z</time>
      </trkpt>
      <trkpt lat="43.94876" lon="5.12345">
        <ele>330.35</ele>
        <time>2014-04-07T09:47:17Z</time>
      </trkpt>
      <trkpt lat="43.94871" lon="5.12332">
        <ele>328.91</ele>
        <time>2014-04-07T09:47:29Z</time>
      </trkpt>
      <trkpt lat="43.94871" lon="5.12316">
        <ele>326.99</ele>
        <time>2014-04-07T09:47:45Z</time>
      </trkpt>
      <trkpt lat="43.94868" lon="5.12302">
        <ele>324.58</ele>
        <time>2014-04-07T09:48:00Z</time>
      </trkpt>
      <trkpt lat="43.9487" lon="5.12291">
        <ele>321.22</ele>
        <time>2014-04-07T09:48:10Z</time>
      </trkpt>
      <trkpt lat="43.94871" lon="5.12283">
        <ele>321.7</ele>
        <time>2014-04-07T09:48:21Z</time>
      </trkpt>
      <trkpt lat="43.94875" lon="5.12272">
        <ele>319.3</ele>
        <time>2014-04-07T09:48:32Z</time>
      </trkpt>
      <trkpt lat="43.94877" lon="5.1227">
        <ele>318.81</ele>
        <time>2014-04-07T09:48:34Z</time>
      </trkpt>
      <trkpt lat="43.9488" lon="5.12266">
        <ele>317.85</ele>
        <time>2014-04-07T09:48:39Z</time>
      </trkpt>
      <trkpt lat="43.94882" lon="5.1225">
        <ele>315.93</ele>
        <time>2014-04-07T09:48:52Z</time>
      </trkpt>
      <trkpt lat="43.94885" lon="5.12246">
        <ele>314.97</ele>
        <time>2014-04-07T09:48:56Z</time>
      </trkpt>
      <trkpt lat="43.94893" lon="5.12226">
        <ele>314.49</ele>
        <time>2014-04-07T09:49:11Z</time>
      </trkpt>
      <trkpt lat="43.94902" lon="5.12209">
        <ele>313.05</ele>
        <time>2014-04-07T09:49:24Z</time>
      </trkpt>
      <trkpt lat="43.94906" lon="5.12203">
        <ele>312.57</ele>
        <time>2014-04-07T09:49:33Z</time>
      </trkpt>
      <trkpt lat="43.94912" lon="5.12184">
        <ele>311.6</ele>
        <time>2014-04-07T09:49:47Z</time>
      </trkpt>
      <trkpt lat="43.94914" lon="5.12168">
        <ele>309.68</ele>
        <time>2014-04-07T09:49:59Z</time>
      </trkpt>
      <trkpt lat="43.94918" lon="5.1215">
        <ele>307.76</ele>
        <time>2014-04-07T09:50:13Z</time>
      </trkpt>
      <trkpt lat="43.9492" lon="5.12144">
        <ele>306.8</ele>
        <time>2014-04-07T09:50:26Z</time>
      </trkpt>
      <trkpt lat="43.94924" lon="5.12127">
        <ele>304.88</ele>
        <time>2014-04-07T09:50:44Z</time>
      </trkpt>
      <trkpt lat="43.94925" lon="5.12126">
        <ele>304.39</ele>
        <time>2014-04-07T09:51:06Z</time>
      </trkpt>
      <trkpt lat="43.94932" lon="5.12141">
        <ele>302.47</ele>
        <time>2014-04-07T09:51:21Z</time>
      </trkpt>
      <trkpt lat="43.94934" lon="5.12141">
        <ele>302.47</ele>
        <time>2014-04-07T09:51:23Z</time>
      </trkpt>
      <trkpt lat="43.94949" lon="5.12144">
        <ele>303.43</ele>
        <time>2014-04-07T09:51:38Z</time>
      </trkpt>
      <trkpt lat="43.94959" lon="5.12145">
        <ele>305.84</ele>
        <time>2014-04-07T09:51:52Z</time>
      </trkpt>
      <trkpt lat="43.94966" lon="5.12151">
        <ele>308.24</ele>
        <time>2014-04-07T09:52:10Z</time>
      </trkpt>
      <trkpt lat="43.9497" lon="5.12161">
        <ele>311.12</ele>
        <time>2014-04-07T09:52:24Z</time>
      </trkpt>
      <trkpt lat="43.94975" lon="5.12184">
        <ele>313.53</ele>
        <time>2014-04-07T09:52:42Z</time>
      </trkpt>
      <trkpt lat="43.94979" lon="5.12199">
        <ele>316.41</ele>
        <time>2014-04-07T09:52:58Z</time>
      </trkpt>
      <trkpt lat="43.94986" lon="5.12197">
        <ele>318.33</ele>
        <time>2014-04-07T09:53:11Z</time>
      </trkpt>
      <trkpt lat="43.94984" lon="5.12184">
        <ele>320.26</ele>
        <time>2014-04-07T09:53:25Z</time>
      </trkpt>
      <trkpt lat="43.94988" lon="5.12171">
        <ele>320.74</ele>
        <time>2014-04-07T09:53:39Z</time>
      </trkpt>
      <trkpt lat="43.94991" lon="5.12161">
        <ele>320.74</ele>
        <time>2014-04-07T09:53:53Z</time>
      </trkpt>
      <trkpt lat="43.94991" lon="5.12156">
        <ele>320.74</ele>
        <time>2014-04-07T09:53:57Z</time>
      </trkpt>
      <trkpt lat="43.94998" lon="5.12149">
        <ele>321.7</ele>
        <time>2014-04-07T09:54:13Z</time>
      </trkpt>
      <trkpt lat="43.94995" lon="5.1216">
        <ele>321.22</ele>
        <time>2014-04-07T09:54:29Z</time>
      </trkpt>
      <trkpt lat="43.94992" lon="5.12175">
        <ele>321.22</ele>
        <time>2014-04-07T09:54:43Z</time>
      </trkpt>
      <trkpt lat="43.94995" lon="5.12183">
        <ele>323.62</ele>
        <time>2014-04-07T09:55:03Z</time>
      </trkpt>
      <trkpt lat="43.94999" lon="5.12183">
        <ele>326.02</ele>
        <time>2014-04-07T09:55:18Z</time>
      </trkpt>
      <trkpt lat="43.94999" lon="5.12178">
        <ele>327.47</ele>
        <time>2014-04-07T09:55:35Z</time>
      </trkpt>
      <trkpt lat="43.95001" lon="5.1218">
        <ele>326.99</ele>
        <time>2014-04-07T09:55:53Z</time>
      </trkpt>
      <trkpt lat="43.95001" lon="5.12179">
        <ele>326.99</ele>
        <time>2014-04-07T09:56:08Z</time>
      </trkpt>
      <trkpt lat="43.94999" lon="5.12185">
        <ele>327.47</ele>
        <time>2014-04-07T09:56:29Z</time>
      </trkpt>
      <trkpt lat="43.94999" lon="5.12181">
        <ele>327.47</ele>
        <time>2014-04-07T09:56:56Z</time>
      </trkpt>
      <trkpt lat="43.94999" lon="5.12179">
        <ele>326.99</ele>
        <time>2014-04-07T09:57:17Z</time>
      </trkpt>
      <trkpt lat="43.95001" lon="5.1218">
        <ele>327.47</ele>
        <time>2014-04-07T09:57:40Z</time>
      </trkpt>
      <trkpt lat="43.94999" lon="5.12181">
        <ele>327.47</ele>
        <time>2014-04-07T09:58:01Z</time>
      </trkpt>
      <trkpt lat="43.94999" lon="5.12184">
        <ele>327.47</ele>
        <time>2014-04-07T09:58:27Z</time>
      </trkpt>
      <trkpt lat="43.94998" lon="5.12186">
        <ele>326.5</ele>
        <time>2014-04-07T09:58:49Z</time>
      </trkpt>
      <trkpt lat="43.94995" lon="5.12189">
        <ele>324.58</ele>
        <time>2014-04-07T09:59:04Z</time>
      </trkpt>
      <trkpt lat="43.94991" lon="5.12181">
        <ele>323.14</ele>
        <time>2014-04-07T09:59:25Z</time>
      </trkpt>
      <trkpt lat="43.94987" lon="5.12178">
        <ele>321.22</ele>
        <time>2014-04-07T09:59:41Z</time>
      </trkpt>
      <trkpt lat="43.94989" lon="5.12176">
        <ele>321.22</ele>
        <time>2014-04-07T09:59:54Z</time>
      </trkpt>
      <trkpt lat="43.94988" lon="5.12175">
        <ele>321.22</ele>
        <time>2014-04-07T10:00:21Z</time>
      </trkpt>
      <trkpt lat="43.94988" lon="5.12187">
        <ele>320.26</ele>
        <time>2014-04-07T10:00:38Z</time>
      </trkpt>
      <trkpt lat="43.94986" lon="5.12197">
        <ele>319.3</ele>
        <time>2014-04-07T10:00:55Z</time>
      </trkpt>
      <trkpt lat="43.94982" lon="5.122">
        <ele>317.37</ele>
        <time>2014-04-07T10:01:11Z</time>
      </trkpt>
      <trkpt lat="43.94974" lon="5.12197">
        <ele>315.45</ele>
        <time>2014-04-07T10:01:28Z</time>
      </trkpt>
      <trkpt lat="43.94968" lon="5.12181">
        <ele>313.53</ele>
        <time>2014-04-07T10:01:43Z</time>
      </trkpt>
      <trkpt lat="43.94967" lon="5.12178">
        <ele>313.53</ele>
        <time>2014-04-07T10:02:00Z</time>
      </trkpt>
      <trkpt lat="43.94966" lon="5.12169">
        <ele>312.09</ele>
        <time>2014-04-07T10:02:14Z</time>
      </trkpt>
      <trkpt lat="43.94962" lon="5.12159">
        <ele>310.16</ele>
        <time>2014-04-07T10:02:27Z</time>
      </trkpt>
      <trkpt lat="43.94961" lon="5.12149">
        <ele>308.24</ele>
        <time>2014-04-07T10:02:40Z</time>
      </trkpt>
      <trkpt lat="43.94955" lon="5.12149">
        <ele>307.76</ele>
        <time>2014-04-07T10:02:56Z</time>
      </trkpt>
      <trkpt lat="43.94948" lon="5.12154">
        <ele>304.88</ele>
        <time>2014-04-07T10:03:13Z</time>
      </trkpt>
      <trkpt lat="43.9494" lon="5.1215">
        <ele>303.91</ele>
        <time>2014-04-07T10:03:29Z</time>
      </trkpt>
      <trkpt lat="43.94931" lon="5.12147">
        <ele>302.95</ele>
        <time>2014-04-07T10:03:43Z</time>
      </trkpt>
      <trkpt lat="43.94924" lon="5.12132">
        <ele>304.39</ele>
        <time>2014-04-07T10:03:57Z</time>
      </trkpt>
      <trkpt lat="43.94925" lon="5.12113">
        <ele>303.43</ele>
        <time>2014-04-07T10:04:11Z</time>
      </trkpt>
      <trkpt lat="43.94926" lon="5.12093">
        <ele>302.47</ele>
        <time>2014-04-07T10:04:26Z</time>
      </trkpt>
      <trkpt lat="43.94929" lon="5.12077">
        <ele>301.51</ele>
        <time>2014-04-07T10:04:41Z</time>
      </trkpt>
      <trkpt lat="43.94928" lon="5.1206">
        <ele>300.07</ele>
        <time>2014-04-07T10:04:55Z</time>
      </trkpt>
      <trkpt lat="43.94922" lon="5.12043">
        <ele>298.15</ele>
        <time>2014-04-07T10:05:09Z</time>
      </trkpt>
      <trkpt lat="43.94913" lon="5.12029">
        <ele>295.74</ele>
        <time>2014-04-07T10:05:25Z</time>
      </trkpt>
      <trkpt lat="43.94907" lon="5.12012">
        <ele>293.82</ele>
        <time>2014-04-07T10:05:39Z</time>
      </trkpt>
      <trkpt lat="43.94908" lon="5.12006">
        <ele>293.34</ele>
        <time>2014-04-07T10:05:48Z</time>
      </trkpt>
      <trkpt lat="43.94899" lon="5.11985">
        <ele>291.42</ele>
        <time>2014-04-07T10:06:02Z</time>
      </trkpt>
      <trkpt lat="43.94891" lon="5.11965">
        <ele>289.01</ele>
        <time>2014-04-07T10:06:16Z</time>
      </trkpt>
      <trkpt lat="43.94893" lon="5.11945">
        <ele>286.61</ele>
        <time>2014-04-07T10:06:30Z</time>
      </trkpt>
      <trkpt lat="43.94888" lon="5.11925">
        <ele>284.21</ele>
        <time>2014-04-07T10:06:45Z</time>
      </trkpt>
      <trkpt lat="43.94884" lon="5.11911">
        <ele>282.77</ele>
        <time>2014-04-07T10:06:59Z</time>
      </trkpt>
      <trkpt lat="43.94879" lon="5.11893">
        <ele>281.32</ele>
        <time>2014-04-07T10:07:14Z</time>
      </trkpt>
      <trkpt lat="43.9488" lon="5.11869">
        <ele>279.88</ele>
        <time>2014-04-07T10:07:30Z</time>
      </trkpt>
      <trkpt lat="43.94879" lon="5.11855">
        <ele>278.92</ele>
        <time>2014-04-07T10:07:42Z</time>
      </trkpt>
      <trkpt lat="43.94875" lon="5.11839">
        <ele>277.48</ele>
        <time>2014-04-07T10:07:55Z</time>
      </trkpt>
      <trkpt lat="43.9487" lon="5.11822">
        <ele>275.07</ele>
        <time>2014-04-07T10:08:09Z</time>
      </trkpt>
      <trkpt lat="43.94868" lon="5.11808">
        <ele>274.59</ele>
        <time>2014-04-07T10:08:17Z</time>
      </trkpt>
      <trkpt lat="43.94867" lon="5.11797">
        <ele>273.63</ele>
        <time>2014-04-07T10:08:25Z</time>
      </trkpt>
      <trkpt lat="43.94863" lon="5.11773">
        <ele>272.19</ele>
        <time>2014-04-07T10:08:41Z</time>
      </trkpt>
      <trkpt lat="43.94854" lon="5.11758">
        <ele>271.23</ele>
        <time>2014-04-07T10:08:56Z</time>
      </trkpt>
      <trkpt lat="43.94843" lon="5.11753">
        <ele>271.23</ele>
        <time>2014-04-07T10:09:10Z</time>
      </trkpt>
      <trkpt lat="43.94832" lon="5.11748">
        <ele>271.23</ele>
        <time>2014-04-07T10:09:29Z</time>
      </trkpt>
      <trkpt lat="43.94816" lon="5.11738">
        <ele>271.23</ele>
        <time>2014-04-07T10:09:45Z</time>
      </trkpt>
      <trkpt lat="43.94803" lon="5.11727">
        <ele>271.23</ele>
        <time>2014-04-07T10:10:02Z</time>
      </trkpt>
      <trkpt lat="43.94791" lon="5.11721">
        <ele>271.71</ele>
        <time>2014-04-07T10:10:16Z</time>
      </trkpt>
      <trkpt lat="43.94783" lon="5.11716">
        <ele>272.67</ele>
        <time>2014-04-07T10:10:27Z</time>
      </trkpt>
      <trkpt lat="43.94769" lon="5.1171">
        <ele>274.11</ele>
        <time>2014-04-07T10:10:42Z</time>
      </trkpt>
      <trkpt lat="43.94759" lon="5.11697">
        <ele>275.07</ele>
        <time>2014-04-07T10:10:57Z</time>
      </trkpt>
      <trkpt lat="43.94747" lon="5.11686">
        <ele>276.52</ele>
        <time>2014-04-07T10:11:12Z</time>
      </trkpt>
      <trkpt lat="43.94736" lon="5.11678">
        <ele>278.44</ele>
        <time>2014-04-07T10:11:28Z</time>
      </trkpt>
      <trkpt lat="43.94724" lon="5.11673">
        <ele>280.84</ele>
        <time>2014-04-07T10:11:43Z</time>
      </trkpt>
      <trkpt lat="43.9472" lon="5.11676">
        <ele>282.77</ele>
        <time>2014-04-07T10:11:57Z</time>
      </trkpt>
      <trkpt lat="43.94713" lon="5.11682">
        <ele>285.17</ele>
        <time>2014-04-07T10:12:11Z</time>
      </trkpt>
      <trkpt lat="43.94702" lon="5.11686">
        <ele>288.05</ele>
        <time>2014-04-07T10:12:27Z</time>
      </trkpt>
      <trkpt lat="43.94694" lon="5.1169">
        <ele>290.46</ele>
        <time>2014-04-07T10:12:42Z</time>
      </trkpt>
      <trkpt lat="43.94685" lon="5.11693">
        <ele>293.34</ele>
        <time>2014-04-07T10:12:56Z</time>
      </trkpt>
      <trkpt lat="43.9468" lon="5.11696">
        <ele>294.78</ele>
        <time>2014-04-07T10:13:10Z</time>
      </trkpt>
      <trkpt lat="43.94673" lon="5.11698">
        <ele>296.7</ele>
        <time>2014-04-07T10:13:22Z</time>
      </trkpt>
      <trkpt lat="43.94661" lon="5.11698">
        <ele>299.59</ele>
        <time>2014-04-07T10:13:39Z</time>
      </trkpt>
      <trkpt lat="43.94652" lon="5.11699">
        <ele>301.03</ele>
        <time>2014-04-07T10:13:54Z</time>
      </trkpt>
      <trkpt lat="43.94644" lon="5.11702">
        <ele>302.95</ele>
        <time>2014-04-07T10:14:07Z</time>
      </trkpt>
      <trkpt lat="43.94636" lon="5.11708">
        <ele>304.88</ele>
        <time>2014-04-07T10:14:23Z</time>
      </trkpt>
      <trkpt lat="43.94625" lon="5.11713">
        <ele>306.8</ele>
        <time>2014-04-07T10:14:37Z</time>
      </trkpt>
      <trkpt lat="43.94618" lon="5.11717">
        <ele>309.68</ele>
        <time>2014-04-07T10:14:52Z</time>
      </trkpt>
      <trkpt lat="43.94608" lon="5.11719">
        <ele>311.12</ele>
        <time>2014-04-07T10:15:05Z</time>
      </trkpt>
      <trkpt lat="43.94609" lon="5.11715">
        <ele>311.12</ele>
        <time>2014-04-07T10:15:18Z</time>
      </trkpt>
      <trkpt lat="43.94605" lon="5.11712">
        <ele>311.12</ele>
        <time>2014-04-07T10:15:37Z</time>
      </trkpt>
      <trkpt lat="43.94605" lon="5.11712">
        <ele>311.12</ele>
        <time>2014-04-07T10:15:54Z</time>
      </trkpt>
      <trkpt lat="43.94606" lon="5.11712">
        <ele>311.12</ele>
        <time>2014-04-07T10:16:15Z</time>
      </trkpt>
      <trkpt lat="43.94604" lon="5.11709">
        <ele>311.12</ele>
        <time>2014-04-07T10:16:39Z</time>
      </trkpt>
      <trkpt lat="43.94605" lon="5.11715">
        <ele>312.09</ele>
        <time>2014-04-07T10:16:59Z</time>
      </trkpt>
      <trkpt lat="43.94598" lon="5.1172">
        <ele>313.05</ele>
        <time>2014-04-07T10:17:08Z</time>
      </trkpt>
      <trkpt lat="43.94586" lon="5.11719">
        <ele>314.97</ele>
        <time>2014-04-07T10:17:22Z</time>
      </trkpt>
      <trkpt lat="43.94575" lon="5.11715">
        <ele>317.37</ele>
        <time>2014-04-07T10:17:38Z</time>
      </trkpt>
      <trkpt lat="43.94565" lon="5.1171">
        <ele>320.26</ele>
        <time>2014-04-07T10:17:56Z</time>
      </trkpt>
      <trkpt lat="43.94556" lon="5.1171">
        <ele>322.66</ele>
        <time>2014-04-07T10:18:11Z</time>
      </trkpt>
      <trkpt lat="43.94547" lon="5.11707">
        <ele>324.58</ele>
        <time>2014-04-07T10:18:25Z</time>
      </trkpt>
      <trkpt lat="43.94536" lon="5.11706">
        <ele>327.47</ele>
        <time>2014-04-07T10:18:40Z</time>
      </trkpt>
      <trkpt lat="43.94526" lon="5.11704">
        <ele>329.39</ele>
        <time>2014-04-07T10:18:54Z</time>
      </trkpt>
      <trkpt lat="43.94519" lon="5.11703">
        <ele>330.83</ele>
        <time>2014-04-07T10:19:07Z</time>
      </trkpt>
      <trkpt lat="43.94509" lon="5.11704">
        <ele>332.75</ele>
        <time>2014-04-07T10:19:22Z</time>
      </trkpt>
      <trkpt lat="43.94494" lon="5.11704">
        <ele>335.64</ele>
        <time>2014-04-07T10:19:41Z</time>
      </trkpt>
      <trkpt lat="43.94485" lon="5.11698">
        <ele>336.12</ele>
        <time>2014-04-07T10:19:51Z</time>
      </trkpt>
      <trkpt lat="43.94471" lon="5.117">
        <ele>335.64</ele>
        <time>2014-04-07T10:20:07Z</time>
      </trkpt>
      <trkpt lat="43.94456" lon="5.11701">
        <ele>334.68</ele>
        <time>2014-04-07T10:20:23Z</time>
      </trkpt>
      <trkpt lat="43.94436" lon="5.11699">
        <ele>335.16</ele>
        <time>2014-04-07T10:20:41Z</time>
      </trkpt>
      <trkpt lat="43.94422" lon="5.11703">
        <ele>335.16</ele>
        <time>2014-04-07T10:20:56Z</time>
      </trkpt>
      <trkpt lat="43.94415" lon="5.11701">
        <ele>335.16</ele>
        <time>2014-04-07T10:21:13Z</time>
      </trkpt>
      <trkpt lat="43.94415" lon="5.11704">
        <ele>335.16</ele>
        <time>2014-04-07T10:21:34Z</time>
      </trkpt>
      <trkpt lat="43.94414" lon="5.11701">
        <ele>334.68</ele>
        <time>2014-04-07T10:21:55Z</time>
      </trkpt>
      <trkpt lat="43.94413" lon="5.11701">
        <ele>335.16</ele>
        <time>2014-04-07T10:22:22Z</time>
      </trkpt>
      <trkpt lat="43.94407" lon="5.11704">
        <ele>335.16</ele>
        <time>2014-04-07T10:22:45Z</time>
      </trkpt>
      <trkpt lat="43.94392" lon="5.1171">
        <ele>334.68</ele>
        <time>2014-04-07T10:23:02Z</time>
      </trkpt>
      <trkpt lat="43.94382" lon="5.11718">
        <ele>335.16</ele>
        <time>2014-04-07T10:23:20Z</time>
      </trkpt>
      <trkpt lat="43.94379" lon="5.11722">
        <ele>335.16</ele>
        <time>2014-04-07T10:23:35Z</time>
      </trkpt>
      <trkpt lat="43.9437" lon="5.11728">
        <ele>334.68</ele>
        <time>2014-04-07T10:23:49Z</time>
      </trkpt>
      <trkpt lat="43.94364" lon="5.11732">
        <ele>334.68</ele>
        <time>2014-04-07T10:23:55Z</time>
      </trkpt>
      <trkpt lat="43.94353" lon="5.11744">
        <ele>335.64</ele>
        <time>2014-04-07T10:24:11Z</time>
      </trkpt>
      <trkpt lat="43.94349" lon="5.11748">
        <ele>335.64</ele>
        <time>2014-04-07T10:24:16Z</time>
      </trkpt>
      <trkpt lat="43.94332" lon="5.1176">
        <ele>335.64</ele>
        <time>2014-04-07T10:24:32Z</time>
      </trkpt>
      <trkpt lat="43.9432" lon="5.11764">
        <ele>335.64</ele>
        <time>2014-04-07T10:24:47Z</time>
      </trkpt>
      <trkpt lat="43.94308" lon="5.11772">
        <ele>336.12</ele>
        <time>2014-04-07T10:25:02Z</time>
      </trkpt>
      <trkpt lat="43.94295" lon="5.11784">
        <ele>336.6</ele>
        <time>2014-04-07T10:25:18Z</time>
      </trkpt>
      <trkpt lat="43.9428" lon="5.1179">
        <ele>337.08</ele>
        <time>2014-04-07T10:25:33Z</time>
      </trkpt>
      <trkpt lat="43.94269" lon="5.11797">
        <ele>337.56</ele>
        <time>2014-04-07T10:25:47Z</time>
      </trkpt>
      <trkpt lat="43.94267" lon="5.11791">
        <ele>337.08</ele>
        <time>2014-04-07T10:26:03Z</time>
      </trkpt>
      <trkpt lat="43.94264" lon="5.11784">
        <ele>337.08</ele>
        <time>2014-04-07T10:26:26Z</time>
      </trkpt>
      <trkpt lat="43.9427" lon="5.11775">
        <ele>335.64</ele>
        <time>2014-04-07T10:26:44Z</time>
      </trkpt>
      <trkpt lat="43.94277" lon="5.11762">
        <ele>334.2</ele>
        <time>2014-04-07T10:26:59Z</time>
      </trkpt>
      <trkpt lat="43.94284" lon="5.11748">
        <ele>332.75</ele>
        <time>2014-04-07T10:27:14Z</time>
      </trkpt>
      <trkpt lat="43.94288" lon="5.11739">
        <ele>331.79</ele>
        <time>2014-04-07T10:27:29Z</time>
      </trkpt>
      <trkpt lat="43.94289" lon="5.11724">
        <ele>329.87</ele>
        <time>2014-04-07T10:27:45Z</time>
      </trkpt>
      <trkpt lat="43.94293" lon="5.11715">
        <ele>327.95</ele>
        <time>2014-04-07T10:27:58Z</time>
      </trkpt>
      <trkpt lat="43.94297" lon="5.11708">
        <ele>326.5</ele>
        <time>2014-04-07T10:28:12Z</time>
      </trkpt>
      <trkpt lat="43.943" lon="5.117">
        <ele>324.1</ele>
        <time>2014-04-07T10:28:26Z</time>
      </trkpt>
      <trkpt lat="43.94305" lon="5.11696">
        <ele>321.7</ele>
        <time>2014-04-07T10:28:41Z</time>
      </trkpt>
      <trkpt lat="43.9431" lon="5.11693">
        <ele>320.74</ele>
        <time>2014-04-07T10:28:55Z</time>
      </trkpt>
      <trkpt lat="43.94316" lon="5.11686">
        <ele>318.33</ele>
        <time>2014-04-07T10:29:10Z</time>
      </trkpt>
      <trkpt lat="43.9432" lon="5.11683">
        <ele>317.37</ele>
        <time>2014-04-07T10:29:23Z</time>
      </trkpt>
      <trkpt lat="43.94323" lon="5.11676">
        <ele>314.97</ele>
        <time>2014-04-07T10:29:36Z</time>
      </trkpt>
      <trkpt lat="43.94327" lon="5.11667">
        <ele>312.57</ele>
        <time>2014-04-07T10:29:53Z</time>
      </trkpt>
      <trkpt lat="43.94332" lon="5.1166">
        <ele>310.64</ele>
        <time>2014-04-07T10:30:08Z</time>
      </trkpt>
      <trkpt lat="43.94337" lon="5.11658">
        <ele>309.2</ele>
        <time>2014-04-07T10:30:21Z</time>
      </trkpt>
      <trkpt lat="43.94341" lon="5.11649">
        <ele>307.76</ele>
        <time>2014-04-07T10:30:34Z</time>
      </trkpt>
      <trkpt lat="43.94346" lon="5.11642">
        <ele>306.32</ele>
        <time>2014-04-07T10:30:48Z</time>
      </trkpt>
      <trkpt lat="43.94352" lon="5.11637">
        <ele>305.36</ele>
        <time>2014-04-07T10:31:01Z</time>
      </trkpt>
      <trkpt lat="43.94355" lon="5.11631">
        <ele>303.91</ele>
        <time>2014-04-07T10:31:14Z</time>
      </trkpt>
      <trkpt lat="43.94352" lon="5.11628">
        <ele>302.95</ele>
        <time>2014-04-07T10:31:27Z</time>
      </trkpt>
      <trkpt lat="43.94355" lon="5.11621">
        <ele>300.55</ele>
        <time>2014-04-07T10:31:43Z</time>
      </trkpt>
      <trkpt lat="43.94352" lon="5.11617">
        <ele>298.63</ele>
        <time>2014-04-07T10:31:57Z</time>
      </trkpt>
      <trkpt lat="43.94344" lon="5.11619">
        <ele>296.22</ele>
        <time>2014-04-07T10:32:13Z</time>
      </trkpt>
      <trkpt lat="43.94338" lon="5.11618">
        <ele>294.3</ele>
        <time>2014-04-07T10:32:27Z</time>
      </trkpt>
      <trkpt lat="43.94332" lon="5.11617">
        <ele>292.86</ele>
        <time>2014-04-07T10:32:41Z</time>
      </trkpt>
      <trkpt lat="43.94327" lon="5.11612">
        <ele>290.94</ele>
        <time>2014-04-07T10:32:58Z</time>
      </trkpt>
      <trkpt lat="43.94326" lon="5.116">
        <ele>289.01</ele>
        <time>2014-04-07T10:33:13Z</time>
      </trkpt>
      <trkpt lat="43.94324" lon="5.11595">
        <ele>287.57</ele>
        <time>2014-04-07T10:33:28Z</time>
      </trkpt>
      <trkpt lat="43.94324" lon="5.11589">
        <ele>287.09</ele>
        <time>2014-04-07T10:33:40Z</time>
      </trkpt>
      <trkpt lat="43.9432" lon="5.11575">
        <ele>285.65</ele>
        <time>2014-04-07T10:33:54Z</time>
      </trkpt>
      <trkpt lat="43.94319" lon="5.11561">
        <ele>283.73</ele>
        <time>2014-04-07T10:34:08Z</time>
      </trkpt>
      <trkpt lat="43.94319" lon="5.1156">
        <ele>283.73</ele>
        <time>2014-04-07T10:34:09Z</time>
      </trkpt>
      <trkpt lat="43.94317" lon="5.11546">
        <ele>282.28</ele>
        <time>2014-04-07T10:34:22Z</time>
      </trkpt>
      <trkpt lat="43.94316" lon="5.11531">
        <ele>280.84</ele>
        <time>2014-04-07T10:34:34Z</time>
      </trkpt>
      <trkpt lat="43.94312" lon="5.11517">
        <ele>280.36</ele>
        <time>2014-04-07T10:34:48Z</time>
      </trkpt>
      <trkpt lat="43.94309" lon="5.11502">
        <ele>278.44</ele>
        <time>2014-04-07T10:35:04Z</time>
      </trkpt>
      <trkpt lat="43.94308" lon="5.11494">
        <ele>278.92</ele>
        <time>2014-04-07T10:35:21Z</time>
      </trkpt>
      <trkpt lat="43.94304" lon="5.11486">
        <ele>280.36</ele>
        <time>2014-04-07T10:35:35Z</time>
      </trkpt>
      <trkpt lat="43.94307" lon="5.11487">
        <ele>280.84</ele>
        <time>2014-04-07T10:36:00Z</time>
      </trkpt>
      <trkpt lat="43.94308" lon="5.11499">
        <ele>282.28</ele>
        <time>2014-04-07T10:36:15Z</time>
      </trkpt>
      <trkpt lat="43.94313" lon="5.11511">
        <ele>282.77</ele>
        <time>2014-04-07T10:36:28Z</time>
      </trkpt>
      <trkpt lat="43.94316" lon="5.11526">
        <ele>283.25</ele>
        <time>2014-04-07T10:36:42Z</time>
      </trkpt>
      <trkpt lat="43.94318" lon="5.11538">
        <ele>284.69</ele>
        <time>2014-04-07T10:36:56Z</time>
      </trkpt>
      <trkpt lat="43.94317" lon="5.11543">
        <ele>284.69</ele>
        <time>2014-04-07T10:37:17Z</time>
      </trkpt>
      <trkpt lat="43.94315" lon="5.11543">
        <ele>285.17</ele>
        <time>2014-04-07T10:37:38Z</time>
      </trkpt>
      <trkpt lat="43.94315" lon="5.11545">
        <ele>285.17</ele>
        <time>2014-04-07T10:37:54Z</time>
      </trkpt>
      <trkpt lat="43.94309" lon="5.11549">
        <ele>285.65</ele>
        <time>2014-04-07T10:38:28Z</time>
      </trkpt>
      <trkpt lat="43.94311" lon="5.11542">
        <ele>284.69</ele>
        <time>2014-04-07T10:38:40Z</time>
      </trkpt>
      <trkpt lat="43.9431" lon="5.11543">
        <ele>294.3</ele>
        <time>2014-04-07T11:22:12Z</time>
      </trkpt>
      <trkpt lat="43.94324" lon="5.11555">
        <ele>294.3</ele>
        <time>2014-04-07T11:22:13Z</time>
      </trkpt>
      <trkpt lat="43.94321" lon="5.11555">
        <ele>294.3</ele>
        <time>2014-04-07T11:22:33Z</time>
      </trkpt>
      <trkpt lat="43.94317" lon="5.11555">
        <ele>294.78</ele>
        <time>2014-04-07T11:22:57Z</time>
      </trkpt>
      <trkpt lat="43.94317" lon="5.11557">
        <ele>293.34</ele>
        <time>2014-04-07T11:23:22Z</time>
      </trkpt>
      <trkpt lat="43.94315" lon="5.11559">
        <ele>292.86</ele>
        <time>2014-04-07T11:23:44Z</time>
      </trkpt>
      <trkpt lat="43.94317" lon="5.11558">
        <ele>292.86</ele>
        <time>2014-04-07T11:23:58Z</time>
      </trkpt>
      <trkpt lat="43.94313" lon="5.11556">
        <ele>292.86</ele>
        <time>2014-04-07T11:24:11Z</time>
      </trkpt>
      <trkpt lat="43.94314" lon="5.11556">
        <ele>291.42</ele>
        <time>2014-04-07T11:24:24Z</time>
      </trkpt>
      <trkpt lat="43.94313" lon="5.11556">
        <ele>290.94</ele>
        <time>2014-04-07T11:24:37Z</time>
      </trkpt>
      <trkpt lat="43.94314" lon="5.11557">
        <ele>290.94</ele>
        <time>2014-04-07T11:24:54Z</time>
      </trkpt>
      <trkpt lat="43.94317" lon="5.11556">
        <ele>289.97</ele>
        <time>2014-04-07T11:25:11Z</time>
      </trkpt>
      <trkpt lat="43.94317" lon="5.11556">
        <ele>289.97</ele>
        <time>2014-04-07T11:25:24Z</time>
      </trkpt>
      <trkpt lat="43.94316" lon="5.11557">
        <ele>290.46</ele>
        <time>2014-04-07T11:25:41Z</time>
      </trkpt>
      <trkpt lat="43.94316" lon="5.11556">
        <ele>290.46</ele>
        <time>2014-04-07T11:25:51Z</time>
      </trkpt>
      <trkpt lat="43.94315" lon="5.11555">
        <ele>290.46</ele>
        <time>2014-04-07T11:26:16Z</time>
      </trkpt>
      <trkpt lat="43.94316" lon="5.1155">
        <ele>289.49</ele>
        <time>2014-04-07T11:26:39Z</time>
      </trkpt>
      <trkpt lat="43.94314" lon="5.11533">
        <ele>287.57</ele>
        <time>2014-04-07T11:26:54Z</time>
      </trkpt>
      <trkpt lat="43.94313" lon="5.1152">
        <ele>286.61</ele>
        <time>2014-04-07T11:27:04Z</time>
      </trkpt>
      <trkpt lat="43.94308" lon="5.11504">
        <ele>286.13</ele>
        <time>2014-04-07T11:27:18Z</time>
      </trkpt>
      <trkpt lat="43.94306" lon="5.11496">
        <ele>284.69</ele>
        <time>2014-04-07T11:27:25Z</time>
      </trkpt>
      <trkpt lat="43.94307" lon="5.1148">
        <ele>284.21</ele>
        <time>2014-04-07T11:27:39Z</time>
      </trkpt>
      <trkpt lat="43.94302" lon="5.11469">
        <ele>285.65</ele>
        <time>2014-04-07T11:27:51Z</time>
      </trkpt>
      <trkpt lat="43.94292" lon="5.11464">
        <ele>287.57</ele>
        <time>2014-04-07T11:28:06Z</time>
      </trkpt>
      <trkpt lat="43.94285" lon="5.11466">
        <ele>289.49</ele>
        <time>2014-04-07T11:28:18Z</time>
      </trkpt>
      <trkpt lat="43.94279" lon="5.11467">
        <ele>290.46</ele>
        <time>2014-04-07T11:28:26Z</time>
      </trkpt>
      <trkpt lat="43.94267" lon="5.1147">
        <ele>292.38</ele>
        <time>2014-04-07T11:28:40Z</time>
      </trkpt>
      <trkpt lat="43.94259" lon="5.11473">
        <ele>294.78</ele>
        <time>2014-04-07T11:28:53Z</time>
      </trkpt>
      <trkpt lat="43.94252" lon="5.11479">
        <ele>296.7</ele>
        <time>2014-04-07T11:29:07Z</time>
      </trkpt>
      <trkpt lat="43.94245" lon="5.11482">
        <ele>298.63</ele>
        <time>2014-04-07T11:29:21Z</time>
      </trkpt>
      <trkpt lat="43.94236" lon="5.11487">
        <ele>300.55</ele>
        <time>2014-04-07T11:29:35Z</time>
      </trkpt>
      <trkpt lat="43.94227" lon="5.1149">
        <ele>302.47</ele>
        <time>2014-04-07T11:29:48Z</time>
      </trkpt>
      <trkpt lat="43.94214" lon="5.11496">
        <ele>304.39</ele>
        <time>2014-04-07T11:30:02Z</time>
      </trkpt>
      <trkpt lat="43.94204" lon="5.115">
        <ele>306.8</ele>
        <time>2014-04-07T11:30:15Z</time>
      </trkpt>
      <trkpt lat="43.94195" lon="5.11506">
        <ele>308.24</ele>
        <time>2014-04-07T11:30:27Z</time>
      </trkpt>
      <trkpt lat="43.94188" lon="5.11518">
        <ele>310.16</ele>
        <time>2014-04-07T11:30:41Z</time>
      </trkpt>
      <trkpt lat="43.9418" lon="5.11528">
        <ele>311.6</ele>
        <time>2014-04-07T11:30:54Z</time>
      </trkpt>
      <trkpt lat="43.94171" lon="5.11536">
        <ele>313.05</ele>
        <time>2014-04-07T11:31:07Z</time>
      </trkpt>
      <trkpt lat="43.9416" lon="5.11548">
        <ele>314.49</ele>
        <time>2014-04-07T11:31:21Z</time>
      </trkpt>
      <trkpt lat="43.94152" lon="5.11554">
        <ele>314.97</ele>
        <time>2014-04-07T11:31:32Z</time>
      </trkpt>
      <trkpt lat="43.94148" lon="5.11559">
        <ele>314.97</ele>
        <time>2014-04-07T11:31:46Z</time>
      </trkpt>
      <trkpt lat="43.94147" lon="5.11554">
        <ele>314.01</ele>
        <time>2014-04-07T11:32:02Z</time>
      </trkpt>
      <trkpt lat="43.94144" lon="5.11553">
        <ele>314.01</ele>
        <time>2014-04-07T11:32:19Z</time>
      </trkpt>
      <trkpt lat="43.94144" lon="5.11553">
        <ele>314.01</ele>
        <time>2014-04-07T11:32:37Z</time>
      </trkpt>
      <trkpt lat="43.94136" lon="5.11549">
        <ele>313.05</ele>
        <time>2014-04-07T11:32:52Z</time>
      </trkpt>
      <trkpt lat="43.9413" lon="5.11544">
        <ele>312.09</ele>
        <time>2014-04-07T11:33:05Z</time>
      </trkpt>
      <trkpt lat="43.94121" lon="5.11537">
        <ele>311.6</ele>
        <time>2014-04-07T11:33:22Z</time>
      </trkpt>
      <trkpt lat="43.94117" lon="5.11534">
        <ele>311.12</ele>
        <time>2014-04-07T11:33:35Z</time>
      </trkpt>
      <trkpt lat="43.94106" lon="5.1153">
        <ele>310.64</ele>
        <time>2014-04-07T11:33:48Z</time>
      </trkpt>
      <trkpt lat="43.94092" lon="5.1153">
        <ele>310.64</ele>
        <time>2014-04-07T11:34:04Z</time>
      </trkpt>
      <trkpt lat="43.94087" lon="5.11524">
        <ele>310.64</ele>
        <time>2014-04-07T11:34:18Z</time>
      </trkpt>
      <trkpt lat="43.94083" lon="5.11521">
        <ele>309.68</ele>
        <time>2014-04-07T11:34:29Z</time>
      </trkpt>
      <trkpt lat="43.9408" lon="5.11518">
        <ele>309.2</ele>
        <time>2014-04-07T11:34:34Z</time>
      </trkpt>
      <trkpt lat="43.94067" lon="5.11511">
        <ele>308.24</ele>
        <time>2014-04-07T11:34:50Z</time>
      </trkpt>
      <trkpt lat="43.94054" lon="5.11506">
        <ele>307.76</ele>
        <time>2014-04-07T11:35:05Z</time>
      </trkpt>
      <trkpt lat="43.94044" lon="5.11502">
        <ele>306.32</ele>
        <time>2014-04-07T11:35:21Z</time>
      </trkpt>
      <trkpt lat="43.94034" lon="5.11488">
        <ele>304.88</ele>
        <time>2014-04-07T11:35:36Z</time>
      </trkpt>
      <trkpt lat="43.94031" lon="5.11487">
        <ele>304.88</ele>
        <time>2014-04-07T11:35:44Z</time>
      </trkpt>
      <trkpt lat="43.94025" lon="5.11483">
        <ele>303.91</ele>
        <time>2014-04-07T11:35:50Z</time>
      </trkpt>
      <trkpt lat="43.94019" lon="5.11477">
        <ele>303.43</ele>
        <time>2014-04-07T11:35:56Z</time>
      </trkpt>
      <trkpt lat="43.94004" lon="5.11464">
        <ele>302.47</ele>
        <time>2014-04-07T11:36:11Z</time>
      </trkpt>
      <trkpt lat="43.94" lon="5.11461">
        <ele>301.51</ele>
        <time>2014-04-07T11:36:16Z</time>
      </trkpt>
      <trkpt lat="43.93993" lon="5.11456">
        <ele>301.03</ele>
        <time>2014-04-07T11:36:24Z</time>
      </trkpt>
      <trkpt lat="43.93983" lon="5.11448">
        <ele>299.11</ele>
        <time>2014-04-07T11:36:39Z</time>
      </trkpt>
      <trkpt lat="43.93977" lon="5.11445">
        <ele>298.15</ele>
        <time>2014-04-07T11:36:47Z</time>
      </trkpt>
      <trkpt lat="43.93967" lon="5.11433">
        <ele>297.18</ele>
        <time>2014-04-07T11:36:59Z</time>
      </trkpt>
      <trkpt lat="43.93958" lon="5.11419">
        <ele>295.26</ele>
        <time>2014-04-07T11:37:15Z</time>
      </trkpt>
      <trkpt lat="43.93949" lon="5.11414">
        <ele>293.82</ele>
        <time>2014-04-07T11:37:25Z</time>
      </trkpt>
      <trkpt lat="43.9394" lon="5.11407">
        <ele>292.86</ele>
        <time>2014-04-07T11:37:35Z</time>
      </trkpt>
      <trkpt lat="43.93938" lon="5.11404">
        <ele>292.38</ele>
        <time>2014-04-07T11:37:38Z</time>
      </trkpt>
      <trkpt lat="43.93936" lon="5.11403">
        <ele>292.38</ele>
        <time>2014-04-07T11:37:40Z</time>
      </trkpt>
      <trkpt lat="43.93934" lon="5.11402">
        <ele>292.38</ele>
        <time>2014-04-07T11:37:42Z</time>
      </trkpt>
      <trkpt lat="43.93919" lon="5.1139">
        <ele>291.42</ele>
        <time>2014-04-07T11:37:58Z</time>
      </trkpt>
      <trkpt lat="43.93906" lon="5.1138">
        <ele>290.46</ele>
        <time>2014-04-07T11:38:14Z</time>
      </trkpt>
      <trkpt lat="43.93895" lon="5.11374">
        <ele>289.49</ele>
        <time>2014-04-07T11:38:28Z</time>
      </trkpt>
      <trkpt lat="43.93889" lon="5.11371">
        <ele>289.49</ele>
        <time>2014-04-07T11:38:44Z</time>
      </trkpt>
      <trkpt lat="43.93879" lon="5.1136">
        <ele>287.57</ele>
        <time>2014-04-07T11:38:59Z</time>
      </trkpt>
      <trkpt lat="43.93876" lon="5.11356">
        <ele>287.57</ele>
        <time>2014-04-07T11:39:03Z</time>
      </trkpt>
      <trkpt lat="43.93874" lon="5.11353">
        <ele>287.09</ele>
        <time>2014-04-07T11:39:06Z</time>
      </trkpt>
      <trkpt lat="43.93861" lon="5.11345">
        <ele>285.65</ele>
        <time>2014-04-07T11:39:20Z</time>
      </trkpt>
      <trkpt lat="43.93851" lon="5.11339">
        <ele>285.17</ele>
        <time>2014-04-07T11:39:31Z</time>
      </trkpt>
      <trkpt lat="43.9385" lon="5.11338">
        <ele>285.17</ele>
        <time>2014-04-07T11:39:34Z</time>
      </trkpt>
      <trkpt lat="43.93839" lon="5.11333">
        <ele>284.21</ele>
        <time>2014-04-07T11:39:49Z</time>
      </trkpt>
      <trkpt lat="43.93826" lon="5.11326">
        <ele>283.25</ele>
        <time>2014-04-07T11:40:03Z</time>
      </trkpt>
      <trkpt lat="43.93822" lon="5.11325">
        <ele>282.77</ele>
        <time>2014-04-07T11:40:07Z</time>
      </trkpt>
      <trkpt lat="43.93813" lon="5.11321">
        <ele>282.28</ele>
        <time>2014-04-07T11:40:18Z</time>
      </trkpt>
      <trkpt lat="43.938" lon="5.11318">
        <ele>281.32</ele>
        <time>2014-04-07T11:40:32Z</time>
      </trkpt>
      <trkpt lat="43.93789" lon="5.11313">
        <ele>280.36</ele>
        <time>2014-04-07T11:40:44Z</time>
      </trkpt>
      <trkpt lat="43.93778" lon="5.11311">
        <ele>279.4</ele>
        <time>2014-04-07T11:40:57Z</time>
      </trkpt>
      <trkpt lat="43.93765" lon="5.1131">
        <ele>278.92</ele>
        <time>2014-04-07T11:41:12Z</time>
      </trkpt>
      <trkpt lat="43.93754" lon="5.11306">
        <ele>277.48</ele>
        <time>2014-04-07T11:41:25Z</time>
      </trkpt>
      <trkpt lat="43.93741" lon="5.11301">
        <ele>277</ele>
        <time>2014-04-07T11:41:37Z</time>
      </trkpt>
      <trkpt lat="43.9373" lon="5.11294">
        <ele>275.56</ele>
        <time>2014-04-07T11:41:49Z</time>
      </trkpt>
      <trkpt lat="43.93716" lon="5.11285">
        <ele>275.07</ele>
        <time>2014-04-07T11:42:01Z</time>
      </trkpt>
      <trkpt lat="43.937" lon="5.11277">
        <ele>274.59</ele>
        <time>2014-04-07T11:42:13Z</time>
      </trkpt>
      <trkpt lat="43.93688" lon="5.11267">
        <ele>273.63</ele>
        <time>2014-04-07T11:42:27Z</time>
      </trkpt>
      <trkpt lat="43.93673" lon="5.11257">
        <ele>272.67</ele>
        <time>2014-04-07T11:42:43Z</time>
      </trkpt>
      <trkpt lat="43.93661" lon="5.11244">
        <ele>271.23</ele>
        <time>2014-04-07T11:42:59Z</time>
      </trkpt>
      <trkpt lat="43.93654" lon="5.11239">
        <ele>270.75</ele>
        <time>2014-04-07T11:43:07Z</time>
      </trkpt>
      <trkpt lat="43.93649" lon="5.11235">
        <ele>270.27</ele>
        <time>2014-04-07T11:43:12Z</time>
      </trkpt>
      <trkpt lat="43.93638" lon="5.11222">
        <ele>269.31</ele>
        <time>2014-04-07T11:43:28Z</time>
      </trkpt>
      <trkpt lat="43.93628" lon="5.11216">
        <ele>268.35</ele>
        <time>2014-04-07T11:43:40Z</time>
      </trkpt>
      <trkpt lat="43.93619" lon="5.11209">
        <ele>267.38</ele>
        <time>2014-04-07T11:43:50Z</time>
      </trkpt>
      <trkpt lat="43.9361" lon="5.11199">
        <ele>266.42</ele>
        <time>2014-04-07T11:44:03Z</time>
      </trkpt>
      <trkpt lat="43.936" lon="5.11189">
        <ele>266.42</ele>
        <time>2014-04-07T11:44:15Z</time>
      </trkpt>
      <trkpt lat="43.93585" lon="5.11178">
        <ele>264.98</ele>
        <time>2014-04-07T11:44:31Z</time>
      </trkpt>
      <trkpt lat="43.93574" lon="5.11173">
        <ele>264.5</ele>
        <time>2014-04-07T11:44:45Z</time>
      </trkpt>
      <trkpt lat="43.93562" lon="5.1117">
        <ele>264.02</ele>
        <time>2014-04-07T11:44:57Z</time>
      </trkpt>
      <trkpt lat="43.93552" lon="5.11174">
        <ele>263.54</ele>
        <time>2014-04-07T11:45:08Z</time>
      </trkpt>
      <trkpt lat="43.93539" lon="5.11171">
        <ele>262.58</ele>
        <time>2014-04-07T11:45:22Z</time>
      </trkpt>
      <trkpt lat="43.93528" lon="5.11177">
        <ele>262.58</ele>
        <time>2014-04-07T11:45:38Z</time>
      </trkpt>
      <trkpt lat="43.93527" lon="5.11178">
        <ele>262.1</ele>
        <time>2014-04-07T11:45:39Z</time>
      </trkpt>
      <trkpt lat="43.93515" lon="5.11189">
        <ele>262.58</ele>
        <time>2014-04-07T11:45:55Z</time>
      </trkpt>
      <trkpt lat="43.93506" lon="5.11201">
        <ele>262.58</ele>
        <time>2014-04-07T11:46:10Z</time>
      </trkpt>
      <trkpt lat="43.93495" lon="5.1121">
        <ele>261.62</ele>
        <time>2014-04-07T11:46:24Z</time>
      </trkpt>
      <trkpt lat="43.93488" lon="5.11217">
        <ele>261.14</ele>
        <time>2014-04-07T11:46:34Z</time>
      </trkpt>
      <trkpt lat="43.93476" lon="5.11227">
        <ele>261.62</ele>
        <time>2014-04-07T11:46:49Z</time>
      </trkpt>
      <trkpt lat="43.93474" lon="5.11229">
        <ele>262.1</ele>
        <time>2014-04-07T11:46:52Z</time>
      </trkpt>
      <trkpt lat="43.93465" lon="5.11242">
        <ele>262.58</ele>
        <time>2014-04-07T11:47:07Z</time>
      </trkpt>
      <trkpt lat="43.93462" lon="5.11245">
        <ele>262.58</ele>
        <time>2014-04-07T11:47:10Z</time>
      </trkpt>
      <trkpt lat="43.93461" lon="5.11247">
        <ele>262.58</ele>
        <time>2014-04-07T11:47:12Z</time>
      </trkpt>
      <trkpt lat="43.9346" lon="5.11249">
        <ele>262.58</ele>
        <time>2014-04-07T11:47:14Z</time>
      </trkpt>
      <trkpt lat="43.93456" lon="5.11253">
        <ele>262.58</ele>
        <time>2014-04-07T11:47:19Z</time>
      </trkpt>
      <trkpt lat="43.93444" lon="5.11269">
        <ele>262.58</ele>
        <time>2014-04-07T11:47:34Z</time>
      </trkpt>
      <trkpt lat="43.93438" lon="5.11275">
        <ele>262.58</ele>
        <time>2014-04-07T11:47:46Z</time>
      </trkpt>
      <trkpt lat="43.93438" lon="5.11273">
        <ele>262.1</ele>
        <time>2014-04-07T11:48:04Z</time>
      </trkpt>
      <trkpt lat="43.93436" lon="5.11273">
        <ele>262.1</ele>
        <time>2014-04-07T11:48:29Z</time>
      </trkpt>
      <trkpt lat="43.93435" lon="5.11275">
        <ele>262.58</ele>
        <time>2014-04-07T11:48:53Z</time>
      </trkpt>
      <trkpt lat="43.93425" lon="5.1128">
        <ele>262.1</ele>
        <time>2014-04-07T11:49:08Z</time>
      </trkpt>
      <trkpt lat="43.93416" lon="5.11287">
        <ele>261.62</ele>
        <time>2014-04-07T11:49:18Z</time>
      </trkpt>
      <trkpt lat="43.93413" lon="5.11288">
        <ele>261.62</ele>
        <time>2014-04-07T11:49:22Z</time>
      </trkpt>
      <trkpt lat="43.93405" lon="5.11291">
        <ele>261.62</ele>
        <time>2014-04-07T11:49:29Z</time>
      </trkpt>
      <trkpt lat="43.93394" lon="5.11292">
        <ele>261.14</ele>
        <time>2014-04-07T11:49:40Z</time>
      </trkpt>
      <trkpt lat="43.93379" lon="5.11287">
        <ele>259.69</ele>
        <time>2014-04-07T11:49:56Z</time>
      </trkpt>
      <trkpt lat="43.93378" lon="5.11287">
        <ele>259.69</ele>
        <time>2014-04-07T11:49:57Z</time>
      </trkpt>
      <trkpt lat="43.93376" lon="5.11288">
        <ele>259.69</ele>
        <time>2014-04-07T11:49:59Z</time>
      </trkpt>
      <trkpt lat="43.93367" lon="5.11284">
        <ele>259.21</ele>
        <time>2014-04-07T11:50:10Z</time>
      </trkpt>
      <trkpt lat="43.93359" lon="5.11274">
        <ele>257.29</ele>
        <time>2014-04-07T11:50:26Z</time>
      </trkpt>
      <trkpt lat="43.93351" lon="5.11263">
        <ele>255.85</ele>
        <time>2014-04-07T11:50:45Z</time>
      </trkpt>
      <trkpt lat="43.93342" lon="5.11256">
        <ele>254.89</ele>
        <time>2014-04-07T11:50:58Z</time>
      </trkpt>
      <trkpt lat="43.93339" lon="5.11253">
        <ele>254.41</ele>
        <time>2014-04-07T11:51:03Z</time>
      </trkpt>
      <trkpt lat="43.93336" lon="5.11252">
        <ele>253.93</ele>
        <time>2014-04-07T11:51:07Z</time>
      </trkpt>
      <trkpt lat="43.93334" lon="5.1125">
        <ele>253.44</ele>
        <time>2014-04-07T11:51:09Z</time>
      </trkpt>
      <trkpt lat="43.93323" lon="5.1124">
        <ele>252</ele>
        <time>2014-04-07T11:51:22Z</time>
      </trkpt>
      <trkpt lat="43.93314" lon="5.11231">
        <ele>251.04</ele>
        <time>2014-04-07T11:51:34Z</time>
      </trkpt>
      <trkpt lat="43.93298" lon="5.11215">
        <ele>248.16</ele>
        <time>2014-04-07T11:51:53Z</time>
      </trkpt>
      <trkpt lat="43.93284" lon="5.11202">
        <ele>245.75</ele>
        <time>2014-04-07T11:52:10Z</time>
      </trkpt>
      <trkpt lat="43.93266" lon="5.11191">
        <ele>242.39</ele>
        <time>2014-04-07T11:52:29Z</time>
      </trkpt>
      <trkpt lat="43.93257" lon="5.11185">
        <ele>240.95</ele>
        <time>2014-04-07T11:52:40Z</time>
      </trkpt>
      <trkpt lat="43.93242" lon="5.11177">
        <ele>238.54</ele>
        <time>2014-04-07T11:52:56Z</time>
      </trkpt>
      <trkpt lat="43.93226" lon="5.11171">
        <ele>236.14</ele>
        <time>2014-04-07T11:53:11Z</time>
      </trkpt>
      <trkpt lat="43.93207" lon="5.11171">
        <ele>233.74</ele>
        <time>2014-04-07T11:53:28Z</time>
      </trkpt>
      <trkpt lat="43.93203" lon="5.11171">
        <ele>233.74</ele>
        <time>2014-04-07T11:53:33Z</time>
      </trkpt>
      <trkpt lat="43.93197" lon="5.11172">
        <ele>232.78</ele>
        <time>2014-04-07T11:53:40Z</time>
      </trkpt>
      <trkpt lat="43.93184" lon="5.11176">
        <ele>232.3</ele>
        <time>2014-04-07T11:53:53Z</time>
      </trkpt>
      <trkpt lat="43.93174" lon="5.11179">
        <ele>231.81</ele>
        <time>2014-04-07T11:54:04Z</time>
      </trkpt>
      <trkpt lat="43.9317" lon="5.1118">
        <ele>231.81</ele>
        <time>2014-04-07T11:54:08Z</time>
      </trkpt>
      <trkpt lat="43.93164" lon="5.1118">
        <ele>231.33</ele>
        <time>2014-04-07T11:54:12Z</time>
      </trkpt>
      <trkpt lat="43.93162" lon="5.1118">
        <ele>231.33</ele>
        <time>2014-04-07T11:54:14Z</time>
      </trkpt>
      <trkpt lat="43.93141" lon="5.11186">
        <ele>230.85</ele>
        <time>2014-04-07T11:54:33Z</time>
      </trkpt>
      <trkpt lat="43.93122" lon="5.11194">
        <ele>229.89</ele>
        <time>2014-04-07T11:54:51Z</time>
      </trkpt>
      <trkpt lat="43.93111" lon="5.112">
        <ele>228.93</ele>
        <time>2014-04-07T11:55:05Z</time>
      </trkpt>
      <trkpt lat="43.93107" lon="5.11201">
        <ele>227.97</ele>
        <time>2014-04-07T11:55:10Z</time>
      </trkpt>
      <trkpt lat="43.93104" lon="5.11202">
        <ele>227.01</ele>
        <time>2014-04-07T11:55:14Z</time>
      </trkpt>
      <trkpt lat="43.93092" lon="5.11204">
        <ele>226.05</ele>
        <time>2014-04-07T11:55:27Z</time>
      </trkpt>
      <trkpt lat="43.93078" lon="5.11212">
        <ele>225.57</ele>
        <time>2014-04-07T11:55:42Z</time>
      </trkpt>
      <trkpt lat="43.93073" lon="5.11217">
        <ele>225.09</ele>
        <time>2014-04-07T11:55:53Z</time>
      </trkpt>
      <trkpt lat="43.93077" lon="5.11216">
        <ele>224.61</ele>
        <time>2014-04-07T11:56:12Z</time>
      </trkpt>
      <trkpt lat="43.93079" lon="5.11211">
        <ele>224.61</ele>
        <time>2014-04-07T11:56:33Z</time>
      </trkpt>
      <trkpt lat="43.93076" lon="5.11212">
        <ele>224.61</ele>
        <time>2014-04-07T11:56:48Z</time>
      </trkpt>
      <trkpt lat="43.93076" lon="5.11212">
        <ele>224.61</ele>
        <time>2014-04-07T11:56:58Z</time>
      </trkpt>
      <trkpt lat="43.93076" lon="5.1121">
        <ele>224.61</ele>
        <time>2014-04-07T11:57:28Z</time>
      </trkpt>
      <trkpt lat="43.93075" lon="5.11214">
        <ele>224.61</ele>
        <time>2014-04-07T11:57:56Z</time>
      </trkpt>
      <trkpt lat="43.93073" lon="5.11215">
        <ele>224.12</ele>
        <time>2014-04-07T11:57:59Z</time>
      </trkpt>
      <trkpt lat="43.93062" lon="5.11223">
        <ele>223.64</ele>
        <time>2014-04-07T11:58:14Z</time>
      </trkpt>
      <trkpt lat="43.93046" lon="5.1123">
        <ele>221.72</ele>
        <time>2014-04-07T11:58:32Z</time>
      </trkpt>
      <trkpt lat="43.93031" lon="5.11235">
        <ele>219.32</ele>
        <time>2014-04-07T11:58:48Z</time>
      </trkpt>
      <trkpt lat="43.93018" lon="5.1124">
        <ele>217.88</ele>
        <time>2014-04-07T11:59:04Z</time>
      </trkpt>
      <trkpt lat="43.93004" lon="5.11246">
        <ele>216.91</ele>
        <time>2014-04-07T11:59:19Z</time>
      </trkpt>
      <trkpt lat="43.9299" lon="5.11251">
        <ele>215.47</ele>
        <time>2014-04-07T11:59:34Z</time>
      </trkpt>
      <trkpt lat="43.92979" lon="5.11248">
        <ele>214.51</ele>
        <time>2014-04-07T11:59:49Z</time>
      </trkpt>
      <trkpt lat="43.92967" lon="5.11242">
        <ele>212.11</ele>
        <time>2014-04-07T12:00:06Z</time>
      </trkpt>
      <trkpt lat="43.92953" lon="5.11243">
        <ele>211.15</ele>
        <time>2014-04-07T12:00:20Z</time>
      </trkpt>
      <trkpt lat="43.92951" lon="5.11242">
        <ele>210.67</ele>
        <time>2014-04-07T12:00:22Z</time>
      </trkpt>
      <trkpt lat="43.9294" lon="5.11238">
        <ele>210.19</ele>
        <time>2014-04-07T12:00:36Z</time>
      </trkpt>
      <trkpt lat="43.92939" lon="5.11231">
        <ele>209.7</ele>
        <time>2014-04-07T12:00:50Z</time>
      </trkpt>
      <trkpt lat="43.92945" lon="5.11211">
        <ele>208.26</ele>
        <time>2014-04-07T12:01:08Z</time>
      </trkpt>
      <trkpt lat="43.92951" lon="5.11197">
        <ele>208.26</ele>
        <time>2014-04-07T12:01:21Z</time>
      </trkpt>
      <trkpt lat="43.9296" lon="5.11181">
        <ele>208.26</ele>
        <time>2014-04-07T12:01:34Z</time>
      </trkpt>
      <trkpt lat="43.92971" lon="5.11164">
        <ele>207.3</ele>
        <time>2014-04-07T12:01:51Z</time>
      </trkpt>
      <trkpt lat="43.92982" lon="5.11148">
        <ele>206.82</ele>
        <time>2014-04-07T12:02:08Z</time>
      </trkpt>
      <trkpt lat="43.92993" lon="5.11133">
        <ele>205.86</ele>
        <time>2014-04-07T12:02:22Z</time>
      </trkpt>
      <trkpt lat="43.93003" lon="5.11118">
        <ele>204.9</ele>
        <time>2014-04-07T12:02:34Z</time>
      </trkpt>
      <trkpt lat="43.93016" lon="5.11104">
        <ele>203.46</ele>
        <time>2014-04-07T12:02:49Z</time>
      </trkpt>
      <trkpt lat="43.93022" lon="5.1109">
        <ele>200.57</ele>
        <time>2014-04-07T12:03:04Z</time>
      </trkpt>
      <trkpt lat="43.93029" lon="5.11081">
        <ele>200.09</ele>
        <time>2014-04-07T12:03:16Z</time>
      </trkpt>
      <trkpt lat="43.93031" lon="5.11075">
        <ele>200.09</ele>
        <time>2014-04-07T12:03:22Z</time>
      </trkpt>
      <trkpt lat="43.93038" lon="5.11058">
        <ele>199.61</ele>
        <time>2014-04-07T12:03:35Z</time>
      </trkpt>
      <trkpt lat="43.93039" lon="5.11044">
        <ele>200.09</ele>
        <time>2014-04-07T12:03:51Z</time>
      </trkpt>
      <trkpt lat="43.93039" lon="5.11029">
        <ele>200.57</ele>
        <time>2014-04-07T12:04:06Z</time>
      </trkpt>
      <trkpt lat="43.93043" lon="5.11008">
        <ele>201.05</ele>
        <time>2014-04-07T12:04:29Z</time>
      </trkpt>
      <trkpt lat="43.93043" lon="5.11004">
        <ele>200.57</ele>
        <time>2014-04-07T12:04:33Z</time>
      </trkpt>
      <trkpt lat="43.93043" lon="5.10995">
        <ele>200.57</ele>
        <time>2014-04-07T12:04:44Z</time>
      </trkpt>
      <trkpt lat="43.93044" lon="5.10991">
        <ele>201.05</ele>
        <time>2014-04-07T12:04:50Z</time>
      </trkpt>
      <trkpt lat="43.93049" lon="5.10979">
        <ele>200.57</ele>
        <time>2014-04-07T12:05:04Z</time>
      </trkpt>
      <trkpt lat="43.93052" lon="5.10968">
        <ele>199.61</ele>
        <time>2014-04-07T12:05:17Z</time>
      </trkpt>
      <trkpt lat="43.93063" lon="5.10956">
        <ele>199.61</ele>
        <time>2014-04-07T12:05:32Z</time>
      </trkpt>
      <trkpt lat="43.93073" lon="5.10949">
        <ele>200.09</ele>
        <time>2014-04-07T12:05:46Z</time>
      </trkpt>
      <trkpt lat="43.9308" lon="5.10946">
        <ele>200.09</ele>
        <time>2014-04-07T12:05:54Z</time>
      </trkpt>
      <trkpt lat="43.93091" lon="5.10941">
        <ele>200.09</ele>
        <time>2014-04-07T12:06:09Z</time>
      </trkpt>
      <trkpt lat="43.93104" lon="5.10935">
        <ele>200.09</ele>
        <time>2014-04-07T12:06:22Z</time>
      </trkpt>
      <trkpt lat="43.93106" lon="5.10935">
        <ele>200.57</ele>
        <time>2014-04-07T12:06:25Z</time>
      </trkpt>
      <trkpt lat="43.93114" lon="5.10931">
        <ele>200.57</ele>
        <time>2014-04-07T12:06:35Z</time>
      </trkpt>
      <trkpt lat="43.93124" lon="5.10929">
        <ele>200.57</ele>
        <time>2014-04-07T12:06:47Z</time>
      </trkpt>
      <trkpt lat="43.93132" lon="5.10924">
        <ele>201.05</ele>
        <time>2014-04-07T12:06:59Z</time>
      </trkpt>
      <trkpt lat="43.93142" lon="5.10924">
        <ele>201.05</ele>
        <time>2014-04-07T12:07:13Z</time>
      </trkpt>
      <trkpt lat="43.93145" lon="5.10921">
        <ele>201.05</ele>
        <time>2014-04-07T12:07:25Z</time>
      </trkpt>
      <trkpt lat="43.93147" lon="5.10922">
        <ele>201.05</ele>
        <time>2014-04-07T12:07:52Z</time>
      </trkpt>
      <trkpt lat="43.93152" lon="5.10921">
        <ele>200.09</ele>
        <time>2014-04-07T12:07:56Z</time>
      </trkpt>
      <trkpt lat="43.93163" lon="5.10911">
        <ele>200.57</ele>
        <time>2014-04-07T12:08:13Z</time>
      </trkpt>
      <trkpt lat="43.93163" lon="5.10906">
        <ele>200.57</ele>
        <time>2014-04-07T12:08:17Z</time>
      </trkpt>
      <trkpt lat="43.93163" lon="5.10897">
        <ele>200.57</ele>
        <time>2014-04-07T12:08:24Z</time>
      </trkpt>
      <trkpt lat="43.93161" lon="5.10883">
        <ele>202.01</ele>
        <time>2014-04-07T12:08:37Z</time>
      </trkpt>
      <trkpt lat="43.93157" lon="5.10863">
        <ele>202.98</ele>
        <time>2014-04-07T12:08:54Z</time>
      </trkpt>
      <trkpt lat="43.93152" lon="5.10854">
        <ele>203.94</ele>
        <time>2014-04-07T12:09:08Z</time>
      </trkpt>
      <trkpt lat="43.93143" lon="5.10842">
        <ele>204.9</ele>
        <time>2014-04-07T12:09:22Z</time>
      </trkpt>
      <trkpt lat="43.93143" lon="5.1084">
        <ele>204.9</ele>
        <time>2014-04-07T12:09:36Z</time>
      </trkpt>
      <trkpt lat="43.93147" lon="5.10834">
        <ele>205.38</ele>
        <time>2014-04-07T12:09:51Z</time>
      </trkpt>
      <trkpt lat="43.93147" lon="5.10815">
        <ele>205.86</ele>
        <time>2014-04-07T12:10:06Z</time>
      </trkpt>
      <trkpt lat="43.9315" lon="5.10795">
        <ele>205.86</ele>
        <time>2014-04-07T12:10:23Z</time>
      </trkpt>
      <trkpt lat="43.93152" lon="5.10789">
        <ele>205.86</ele>
        <time>2014-04-07T12:10:37Z</time>
      </trkpt>
      <trkpt lat="43.93147" lon="5.10807">
        <ele>205.38</ele>
        <time>2014-04-07T12:10:51Z</time>
      </trkpt>
      <trkpt lat="43.93148" lon="5.10823">
        <ele>205.86</ele>
        <time>2014-04-07T12:11:05Z</time>
      </trkpt>
      <trkpt lat="43.93149" lon="5.10829">
        <ele>205.86</ele>
        <time>2014-04-07T12:11:08Z</time>
      </trkpt>
      <trkpt lat="43.93149" lon="5.10836">
        <ele>205.38</ele>
        <time>2014-04-07T12:11:12Z</time>
      </trkpt>
      <trkpt lat="43.93152" lon="5.10841">
        <ele>205.38</ele>
        <time>2014-04-07T12:11:26Z</time>
      </trkpt>
      <trkpt lat="43.93158" lon="5.10843">
        <ele>206.34</ele>
        <time>2014-04-07T12:11:37Z</time>
      </trkpt>
      <trkpt lat="43.93163" lon="5.10844">
        <ele>207.78</ele>
        <time>2014-04-07T12:11:47Z</time>
      </trkpt>
      <trkpt lat="43.93174" lon="5.10843">
        <ele>208.26</ele>
        <time>2014-04-07T12:11:59Z</time>
      </trkpt>
      <trkpt lat="43.93183" lon="5.10845">
        <ele>209.7</ele>
        <time>2014-04-07T12:12:12Z</time>
      </trkpt>
      <trkpt lat="43.93196" lon="5.10842">
        <ele>211.63</ele>
        <time>2014-04-07T12:12:30Z</time>
      </trkpt>
      <trkpt lat="43.93208" lon="5.10841">
        <ele>213.07</ele>
        <time>2014-04-07T12:12:44Z</time>
      </trkpt>
      <trkpt lat="43.93219" lon="5.10841">
        <ele>214.51</ele>
        <time>2014-04-07T12:12:56Z</time>
      </trkpt>
      <trkpt lat="43.9323" lon="5.10843">
        <ele>215.47</ele>
        <time>2014-04-07T12:13:10Z</time>
      </trkpt>
      <trkpt lat="43.93241" lon="5.10845">
        <ele>216.43</ele>
        <time>2014-04-07T12:13:24Z</time>
      </trkpt>
      <trkpt lat="43.93251" lon="5.10847">
        <ele>217.4</ele>
        <time>2014-04-07T12:13:39Z</time>
      </trkpt>
      <trkpt lat="43.93263" lon="5.10853">
        <ele>218.84</ele>
        <time>2014-04-07T12:13:56Z</time>
      </trkpt>
      <trkpt lat="43.93272" lon="5.10857">
        <ele>219.32</ele>
        <time>2014-04-07T12:14:08Z</time>
      </trkpt>
      <trkpt lat="43.93282" lon="5.10863">
        <ele>220.76</ele>
        <time>2014-04-07T12:14:22Z</time>
      </trkpt>
      <trkpt lat="43.93294" lon="5.10868">
        <ele>221.72</ele>
        <time>2014-04-07T12:14:31Z</time>
      </trkpt>
      <trkpt lat="43.9331" lon="5.10868">
        <ele>221.72</ele>
        <time>2014-04-07T12:14:45Z</time>
      </trkpt>
      <trkpt lat="43.93318" lon="5.10869">
        <ele>222.68</ele>
        <time>2014-04-07T12:14:57Z</time>
      </trkpt>
      <trkpt lat="43.93331" lon="5.10872">
        <ele>223.64</ele>
        <time>2014-04-07T12:15:11Z</time>
      </trkpt>
      <trkpt lat="43.93344" lon="5.10873">
        <ele>225.09</ele>
        <time>2014-04-07T12:15:31Z</time>
      </trkpt>
      <trkpt lat="43.93355" lon="5.10889">
        <ele>227.49</ele>
        <time>2014-04-07T12:15:47Z</time>
      </trkpt>
      <trkpt lat="43.93359" lon="5.10892">
        <ele>227.49</ele>
        <time>2014-04-07T12:15:52Z</time>
      </trkpt>
      <trkpt lat="43.9337" lon="5.10897">
        <ele>228.93</ele>
        <time>2014-04-07T12:16:07Z</time>
      </trkpt>
      <trkpt lat="43.93376" lon="5.10899">
        <ele>229.89</ele>
        <time>2014-04-07T12:16:14Z</time>
      </trkpt>
      <trkpt lat="43.93378" lon="5.10901">
        <ele>229.89</ele>
        <time>2014-04-07T12:16:16Z</time>
      </trkpt>
      <trkpt lat="43.93382" lon="5.10906">
        <ele>230.37</ele>
        <time>2014-04-07T12:16:21Z</time>
      </trkpt>
      <trkpt lat="43.93386" lon="5.1091">
        <ele>230.85</ele>
        <time>2014-04-07T12:16:26Z</time>
      </trkpt>
      <trkpt lat="43.93392" lon="5.10913">
        <ele>231.33</ele>
        <time>2014-04-07T12:16:41Z</time>
      </trkpt>
      <trkpt lat="43.93396" lon="5.10918">
        <ele>232.3</ele>
        <time>2014-04-07T12:16:56Z</time>
      </trkpt>
      <trkpt lat="43.93398" lon="5.10918">
        <ele>233.26</ele>
        <time>2014-04-07T12:17:08Z</time>
      </trkpt>
      <trkpt lat="43.93397" lon="5.10921">
        <ele>232.78</ele>
        <time>2014-04-07T12:17:28Z</time>
      </trkpt>
      <trkpt lat="43.93398" lon="5.10917">
        <ele>233.26</ele>
        <time>2014-04-07T12:17:53Z</time>
      </trkpt>
      <trkpt lat="43.93398" lon="5.10911">
        <ele>233.26</ele>
        <time>2014-04-07T12:18:24Z</time>
      </trkpt>
      <trkpt lat="43.93409" lon="5.10925">
        <ele>234.22</ele>
        <time>2014-04-07T12:18:38Z</time>
      </trkpt>
      <trkpt lat="43.93418" lon="5.10935">
        <ele>235.66</ele>
        <time>2014-04-07T12:18:53Z</time>
      </trkpt>
      <trkpt lat="43.93427" lon="5.10938">
        <ele>236.62</ele>
        <time>2014-04-07T12:19:05Z</time>
      </trkpt>
      <trkpt lat="43.93438" lon="5.10939">
        <ele>237.1</ele>
        <time>2014-04-07T12:19:17Z</time>
      </trkpt>
      <trkpt lat="43.93443" lon="5.10927">
        <ele>235.18</ele>
        <time>2014-04-07T12:19:31Z</time>
      </trkpt>
      <trkpt lat="43.93447" lon="5.10916">
        <ele>234.22</ele>
        <time>2014-04-07T12:19:44Z</time>
      </trkpt>
      <trkpt lat="43.9345" lon="5.10906">
        <ele>233.26</ele>
        <time>2014-04-07T12:19:58Z</time>
      </trkpt>
      <trkpt lat="43.93455" lon="5.10901">
        <ele>231.81</ele>
        <time>2014-04-07T12:20:12Z</time>
      </trkpt>
      <trkpt lat="43.93459" lon="5.10902">
        <ele>230.85</ele>
        <time>2014-04-07T12:20:26Z</time>
      </trkpt>
      <trkpt lat="43.9347" lon="5.10904">
        <ele>228.93</ele>
        <time>2014-04-07T12:20:42Z</time>
      </trkpt>
      <trkpt lat="43.93479" lon="5.10904">
        <ele>227.49</ele>
        <time>2014-04-07T12:20:57Z</time>
      </trkpt>
      <trkpt lat="43.9349" lon="5.10904">
        <ele>226.05</ele>
        <time>2014-04-07T12:21:12Z</time>
      </trkpt>
      <trkpt lat="43.93501" lon="5.10904">
        <ele>225.09</ele>
        <time>2014-04-07T12:21:26Z</time>
      </trkpt>
      <trkpt lat="43.93513" lon="5.109">
        <ele>222.68</ele>
        <time>2014-04-07T12:21:42Z</time>
      </trkpt>
      <trkpt lat="43.9352" lon="5.10898">
        <ele>221.72</ele>
        <time>2014-04-07T12:21:54Z</time>
      </trkpt>
      <trkpt lat="43.93523" lon="5.109">
        <ele>221.24</ele>
        <time>2014-04-07T12:22:13Z</time>
      </trkpt>
      <trkpt lat="43.93525" lon="5.10896">
        <ele>220.76</ele>
        <time>2014-04-07T12:22:27Z</time>
      </trkpt>
      <trkpt lat="43.93531" lon="5.10891">
        <ele>218.36</ele>
        <time>2014-04-07T12:22:46Z</time>
      </trkpt>
      <trkpt lat="43.93541" lon="5.10892">
        <ele>215.47</ele>
        <time>2014-04-07T12:23:03Z</time>
      </trkpt>
      <trkpt lat="43.9355" lon="5.10888">
        <ele>213.55</ele>
        <time>2014-04-07T12:23:18Z</time>
      </trkpt>
      <trkpt lat="43.93558" lon="5.1088">
        <ele>211.15</ele>
        <time>2014-04-07T12:23:33Z</time>
      </trkpt>
      <trkpt lat="43.93568" lon="5.1088">
        <ele>208.26</ele>
        <time>2014-04-07T12:23:49Z</time>
      </trkpt>
      <trkpt lat="43.93578" lon="5.10882">
        <ele>205.86</ele>
        <time>2014-04-07T12:24:06Z</time>
      </trkpt>
      <trkpt lat="43.9359" lon="5.10882">
        <ele>203.94</ele>
        <time>2014-04-07T12:24:21Z</time>
      </trkpt>
      <trkpt lat="43.93604" lon="5.10882">
        <ele>200.57</ele>
        <time>2014-04-07T12:24:37Z</time>
      </trkpt>
      <trkpt lat="43.93617" lon="5.10881">
        <ele>198.65</ele>
        <time>2014-04-07T12:24:52Z</time>
      </trkpt>
      <trkpt lat="43.93631" lon="5.10872">
        <ele>195.28</ele>
        <time>2014-04-07T12:25:10Z</time>
      </trkpt>
      <trkpt lat="43.93644" lon="5.10867">
        <ele>192.88</ele>
        <time>2014-04-07T12:25:26Z</time>
      </trkpt>
      <trkpt lat="43.9366" lon="5.10869">
        <ele>189.52</ele>
        <time>2014-04-07T12:25:44Z</time>
      </trkpt>
      <trkpt lat="43.93671" lon="5.10871">
        <ele>186.63</ele>
        <time>2014-04-07T12:26:01Z</time>
      </trkpt>
      <trkpt lat="43.93674" lon="5.10871">
        <ele>184.71</ele>
        <time>2014-04-07T12:26:07Z</time>
      </trkpt>
      <trkpt lat="43.93682" lon="5.10874">
        <ele>182.31</ele>
        <time>2014-04-07T12:26:19Z</time>
      </trkpt>
      <trkpt lat="43.93697" lon="5.10873">
        <ele>179.9</ele>
        <time>2014-04-07T12:26:34Z</time>
      </trkpt>
      <trkpt lat="43.93708" lon="5.10875">
        <ele>178.94</ele>
        <time>2014-04-07T12:26:52Z</time>
      </trkpt>
      <trkpt lat="43.93716" lon="5.10873">
        <ele>177.98</ele>
        <time>2014-04-07T12:27:08Z</time>
      </trkpt>
      <trkpt lat="43.93717" lon="5.10873">
        <ele>178.46</ele>
        <time>2014-04-07T12:27:32Z</time>
      </trkpt>
      <trkpt lat="43.93714" lon="5.10868">
        <ele>177.98</ele>
        <time>2014-04-07T12:27:59Z</time>
      </trkpt>
      <trkpt lat="43.93717" lon="5.1087">
        <ele>178.46</ele>
        <time>2014-04-07T12:28:26Z</time>
      </trkpt>
      <trkpt lat="43.93719" lon="5.10871">
        <ele>177.98</ele>
        <time>2014-04-07T12:28:51Z</time>
      </trkpt>
      <trkpt lat="43.93726" lon="5.10875">
        <ele>179.42</ele>
        <time>2014-04-07T12:29:06Z</time>
      </trkpt>
      <trkpt lat="43.93733" lon="5.10879">
        <ele>179.9</ele>
        <time>2014-04-07T12:29:21Z</time>
      </trkpt>
      <trkpt lat="43.93739" lon="5.1087">
        <ele>181.35</ele>
        <time>2014-04-07T12:29:36Z</time>
      </trkpt>
      <trkpt lat="43.93744" lon="5.10862">
        <ele>183.75</ele>
        <time>2014-04-07T12:29:52Z</time>
      </trkpt>
      <trkpt lat="43.93747" lon="5.10859">
        <ele>184.23</ele>
        <time>2014-04-07T12:29:55Z</time>
      </trkpt>
      <trkpt lat="43.93747" lon="5.10845">
        <ele>187.11</ele>
        <time>2014-04-07T12:30:09Z</time>
      </trkpt>
      <trkpt lat="43.93736" lon="5.10833">
        <ele>189.52</ele>
        <time>2014-04-07T12:30:24Z</time>
      </trkpt>
      <trkpt lat="43.93734" lon="5.10819">
        <ele>191.44</ele>
        <time>2014-04-07T12:30:36Z</time>
      </trkpt>
      <trkpt lat="43.93723" lon="5.10798">
        <ele>193.84</ele>
        <time>2014-04-07T12:30:54Z</time>
      </trkpt>
      <trkpt lat="43.93718" lon="5.10786">
        <ele>195.28</ele>
        <time>2014-04-07T12:31:05Z</time>
      </trkpt>
      <trkpt lat="43.93706" lon="5.10764">
        <ele>197.21</ele>
        <time>2014-04-07T12:31:22Z</time>
      </trkpt>
      <trkpt lat="43.93696" lon="5.10743">
        <ele>198.65</ele>
        <time>2014-04-07T12:31:39Z</time>
      </trkpt>
      <trkpt lat="43.93691" lon="5.10728">
        <ele>199.13</ele>
        <time>2014-04-07T12:31:51Z</time>
      </trkpt>
      <trkpt lat="43.93674" lon="5.10717">
        <ele>200.09</ele>
        <time>2014-04-07T12:32:06Z</time>
      </trkpt>
      <trkpt lat="43.93673" lon="5.10715">
        <ele>200.57</ele>
        <time>2014-04-07T12:32:08Z</time>
      </trkpt>
      <trkpt lat="43.93671" lon="5.10698">
        <ele>201.53</ele>
        <time>2014-04-07T12:32:17Z</time>
      </trkpt>
      <trkpt lat="43.93666" lon="5.10688">
        <ele>202.49</ele>
        <time>2014-04-07T12:32:26Z</time>
      </trkpt>
      <trkpt lat="43.93654" lon="5.10673">
        <ele>203.94</ele>
        <time>2014-04-07T12:32:40Z</time>
      </trkpt>
      <trkpt lat="43.93648" lon="5.10665">
        <ele>204.9</ele>
        <time>2014-04-07T12:32:48Z</time>
      </trkpt>
      <trkpt lat="43.93637" lon="5.10655">
        <ele>205.38</ele>
        <time>2014-04-07T12:33:05Z</time>
      </trkpt>
      <trkpt lat="43.93622" lon="5.10653">
        <ele>203.94</ele>
        <time>2014-04-07T12:33:22Z</time>
      </trkpt>
      <trkpt lat="43.93613" lon="5.10644">
        <ele>202.98</ele>
        <time>2014-04-07T12:33:32Z</time>
      </trkpt>
      <trkpt lat="43.936" lon="5.10624">
        <ele>204.9</ele>
        <time>2014-04-07T12:33:49Z</time>
      </trkpt>
      <trkpt lat="43.93584" lon="5.10616">
        <ele>206.34</ele>
        <time>2014-04-07T12:34:04Z</time>
      </trkpt>
      <trkpt lat="43.93586" lon="5.10594">
        <ele>207.3</ele>
        <time>2014-04-07T12:34:17Z</time>
      </trkpt>
      <trkpt lat="43.93593" lon="5.10582">
        <ele>208.26</ele>
        <time>2014-04-07T12:34:30Z</time>
      </trkpt>
      <trkpt lat="43.93596" lon="5.10582">
        <ele>207.78</ele>
        <time>2014-04-07T12:34:41Z</time>
      </trkpt>
      <trkpt lat="43.93597" lon="5.10586">
        <ele>208.26</ele>
        <time>2014-04-07T12:34:55Z</time>
      </trkpt>
      <trkpt lat="43.93596" lon="5.10582">
        <ele>207.78</ele>
        <time>2014-04-07T12:35:23Z</time>
      </trkpt>
      <trkpt lat="43.93595" lon="5.1058">
        <ele>208.26</ele>
        <time>2014-04-07T12:35:52Z</time>
      </trkpt>
      <trkpt lat="43.93596" lon="5.10574">
        <ele>208.26</ele>
        <time>2014-04-07T12:36:24Z</time>
      </trkpt>
      <trkpt lat="43.93595" lon="5.10574">
        <ele>208.26</ele>
        <time>2014-04-07T12:36:52Z</time>
      </trkpt>
      <trkpt lat="43.93595" lon="5.10575">
        <ele>207.78</ele>
        <time>2014-04-07T12:37:03Z</time>
      </trkpt>
      <trkpt lat="43.93598" lon="5.1058">
        <ele>208.26</ele>
        <time>2014-04-07T12:37:24Z</time>
      </trkpt>
      <trkpt lat="43.936" lon="5.10579">
        <ele>208.26</ele>
        <time>2014-04-07T12:37:49Z</time>
      </trkpt>
      <trkpt lat="43.936" lon="5.1058">
        <ele>208.26</ele>
        <time>2014-04-07T12:38:05Z</time>
      </trkpt>
      <trkpt lat="43.93599" lon="5.1058">
        <ele>208.26</ele>
        <time>2014-04-07T12:38:25Z</time>
      </trkpt>
      <trkpt lat="43.93603" lon="5.1058">
        <ele>208.74</ele>
        <time>2014-04-07T12:38:43Z</time>
      </trkpt>
      <trkpt lat="43.93606" lon="5.10579">
        <ele>209.22</ele>
        <time>2014-04-07T12:38:47Z</time>
      </trkpt>
      <trkpt lat="43.93609" lon="5.10576">
        <ele>209.22</ele>
        <time>2014-04-07T12:39:00Z</time>
      </trkpt>
      <trkpt lat="43.93615" lon="5.10575">
        <ele>209.22</ele>
        <time>2014-04-07T12:39:16Z</time>
      </trkpt>
      <trkpt lat="43.93619" lon="5.10574">
        <ele>209.22</ele>
        <time>2014-04-07T12:39:36Z</time>
      </trkpt>
      <trkpt lat="43.93622" lon="5.10568">
        <ele>209.22</ele>
        <time>2014-04-07T12:39:53Z</time>
      </trkpt>
      <trkpt lat="43.93623" lon="5.10568">
        <ele>208.74</ele>
        <time>2014-04-07T12:40:13Z</time>
      </trkpt>
      <trkpt lat="43.93624" lon="5.10571">
        <ele>208.74</ele>
        <time>2014-04-07T12:40:42Z</time>
      </trkpt>
      <trkpt lat="43.93622" lon="5.10576">
        <ele>208.74</ele>
        <time>2014-04-07T12:41:28Z</time>
      </trkpt>
      <trkpt lat="43.93622" lon="5.10571">
        <ele>208.74</ele>
        <time>2014-04-07T12:42:01Z</time>
      </trkpt>
      <trkpt lat="43.93622" lon="5.10565">
        <ele>207.78</ele>
        <time>2014-04-07T12:42:22Z</time>
      </trkpt>
      <trkpt lat="43.93623" lon="5.10565">
        <ele>213.55</ele>
        <time>2014-04-07T13:25:07Z</time>
      </trkpt>
      <trkpt lat="43.93726" lon="5.10545">
        <ele>213.55</ele>
        <time>2014-04-07T13:25:13Z</time>
      </trkpt>
      <trkpt lat="43.93728" lon="5.10555">
        <ele>213.55</ele>
        <time>2014-04-07T13:25:30Z</time>
      </trkpt>
      <trkpt lat="43.93726" lon="5.10556">
        <ele>213.55</ele>
        <time>2014-04-07T13:25:41Z</time>
      </trkpt>
      <trkpt lat="43.93728" lon="5.10552">
        <ele>213.07</ele>
        <time>2014-04-07T13:25:56Z</time>
      </trkpt>
      <trkpt lat="43.93728" lon="5.10552">
        <ele>213.07</ele>
        <time>2014-04-07T13:26:08Z</time>
      </trkpt>
    </trkseg>
  </trk>
</gpx>